<?xml version="1.0" encoding="UTF-8" standalone="no" ?>
<gpx xmlns="http://www.topografix.com/GPX/1/1" xmlns:xsi="http://www.w3.org/2001/XMLSchema-instance" xsi:schemaLocation="http://www.topografix.com/GPX/1/1 http://www.topografix.com/GPX/1/1/gpx.xsd" version="1.1" creator="VisuGPX - https://www.visugpx.com">
  <metadata>
    <name>Tour de la Crête de la Plane et sa vire helicoidale (Dévoluy)</name>
    <desc><![CDATA[Au départ de la route d'acces au [b]Col de Rabou[/b] vers 1600m
Col de Rabou
Tête du Chateau
Vire hélicoïdale 
Crête de la Plane et AR à son Arche
Descente en Rive Gauche du Vallon de Barges sous les falaises , c'est superbe mais il faut aimer la caillasse.
Topo de la vire ici : [url]https://www.altituderando.com/Crete-de-la-Plane-2340m-Versant-sud-par-la-vire-Helicoidale[/url]
.
photos ici : [url]https://photos.app.goo.gl/Z4HWk2HvFwL2ktPR6[/url]
Autres sorties dans le Dévoluy --> [url]http://www.visugpx.com/membres/87/devoluy/?tri=ttr [/url]
]]></desc>
  </metadata>
  <wpt lat="44.63224" lon="5.96955">
    <ele>1884.17</ele>
    <name><![CDATA[0000788]]></name>
  </wpt>
  <trk>
    <name><![CDATA[2026-07-09 montagne de Barge]]></name>
    <desc><![CDATA[<p>Type: Marche<br/>Heure de départ: 08:21 9 juil. 2026<br/>Heure d'arrivée: 16:04 9 juil. 2026<br/>Distance: 13,4 km (07:43)<br/>Temps déplacement: 05:46<br/>Vitesse moyenne: 1,73 km/h<br/>Vitesse en mouvement: 2,31 km/h<br/>Vitesse Max.: 5,49 km/h<br/>Altitude minimale: 1623 m<br/>Altitude maximale: 2299 m<br/>Vitesse de montée: 329,5 m/h<br/>Vitesse de descente: 368,4 m/h<br/>Dénivelé positif: 1009 m<br/>Dénivelé négatif: 1001 m<br/>Temps de montée: 03:03<br/>Temps de descente: 02:43<br/></p><hr align="center" width="480" style="height: 2px; width: 517px"/>]]></desc>
    <extensions>
      <line xmlns="http://www.topografix.com/GPX/gpx_style/0/2">
        <color>0000FF</color>
        <width>4</width>
      </line>
    </extensions>
    <trkseg>
      <trkpt lat="44.66858" lon="5.96613">
        <ele>1623.92</ele>
        <time>2026-07-09T06:21:18.000Z</time>
      </trkpt>
      <trkpt lat="44.6686" lon="5.9662">
        <ele>1625.5</ele>
        <time>2026-07-09T06:21:32.000Z</time>
      </trkpt>
      <trkpt lat="44.66868" lon="5.96646">
        <ele>1624.97</ele>
        <time>2026-07-09T06:21:50.000Z</time>
      </trkpt>
      <trkpt lat="44.66876" lon="5.96669">
        <ele>1625.74</ele>
        <time>2026-07-09T06:22:12.000Z</time>
      </trkpt>
      <trkpt lat="44.66883" lon="5.96695">
        <ele>1627</ele>
        <time>2026-07-09T06:22:30.000Z</time>
      </trkpt>
      <trkpt lat="44.66877" lon="5.96721">
        <ele>1628.59</ele>
        <time>2026-07-09T06:22:46.000Z</time>
      </trkpt>
      <trkpt lat="44.66866" lon="5.96742">
        <ele>1628.65</ele>
        <time>2026-07-09T06:23:18.000Z</time>
      </trkpt>
      <trkpt lat="44.66858" lon="5.96765">
        <ele>1629.24</ele>
        <time>2026-07-09T06:23:32.000Z</time>
      </trkpt>
      <trkpt lat="44.66847" lon="5.96788">
        <ele>1629.86</ele>
        <time>2026-07-09T06:23:48.000Z</time>
      </trkpt>
      <trkpt lat="44.6683" lon="5.96805">
        <ele>1631.51</ele>
        <time>2026-07-09T06:24:10.000Z</time>
      </trkpt>
      <trkpt lat="44.66813" lon="5.96812">
        <ele>1632.84</ele>
        <time>2026-07-09T06:24:26.000Z</time>
      </trkpt>
      <trkpt lat="44.66795" lon="5.96825">
        <ele>1634.81</ele>
        <time>2026-07-09T06:24:44.000Z</time>
      </trkpt>
      <trkpt lat="44.6678" lon="5.96839">
        <ele>1636.52</ele>
        <time>2026-07-09T06:25:00.000Z</time>
      </trkpt>
      <trkpt lat="44.66763" lon="5.96852">
        <ele>1638.9</ele>
        <time>2026-07-09T06:25:18.000Z</time>
      </trkpt>
      <trkpt lat="44.66746" lon="5.96864">
        <ele>1640.13</ele>
        <time>2026-07-09T06:25:36.000Z</time>
      </trkpt>
      <trkpt lat="44.66731" lon="5.9688">
        <ele>1642.03</ele>
        <time>2026-07-09T06:25:54.000Z</time>
      </trkpt>
      <trkpt lat="44.66719" lon="5.969">
        <ele>1642.28</ele>
        <time>2026-07-09T06:26:18.000Z</time>
      </trkpt>
      <trkpt lat="44.66705" lon="5.96917">
        <ele>1642.67</ele>
        <time>2026-07-09T06:26:32.000Z</time>
      </trkpt>
      <trkpt lat="44.66688" lon="5.96925">
        <ele>1644.06</ele>
        <time>2026-07-09T06:26:46.000Z</time>
      </trkpt>
      <trkpt lat="44.6667" lon="5.96937">
        <ele>1645.4</ele>
        <time>2026-07-09T06:27:02.000Z</time>
      </trkpt>
      <trkpt lat="44.66654" lon="5.96951">
        <ele>1648.69</ele>
        <time>2026-07-09T06:27:19.999Z</time>
      </trkpt>
      <trkpt lat="44.66636" lon="5.96961">
        <ele>1650.23</ele>
        <time>2026-07-09T06:27:39.999Z</time>
      </trkpt>
      <trkpt lat="44.66621" lon="5.9698">
        <ele>1650.8</ele>
        <time>2026-07-09T06:28:11.999Z</time>
      </trkpt>
      <trkpt lat="44.66605" lon="5.96995">
        <ele>1650.94</ele>
        <time>2026-07-09T06:28:25.999Z</time>
      </trkpt>
      <trkpt lat="44.66585" lon="5.96997">
        <ele>1651.25</ele>
        <time>2026-07-09T06:28:41.999Z</time>
      </trkpt>
      <trkpt lat="44.66567" lon="5.96993">
        <ele>1651.31</ele>
        <time>2026-07-09T06:30:17.999Z</time>
      </trkpt>
      <trkpt lat="44.66547" lon="5.96991">
        <ele>1651.21</ele>
        <time>2026-07-09T06:30:59.999Z</time>
      </trkpt>
      <trkpt lat="44.66528" lon="5.9699">
        <ele>1652.34</ele>
        <time>2026-07-09T06:31:15.999Z</time>
      </trkpt>
      <trkpt lat="44.6651" lon="5.96991">
        <ele>1653.06</ele>
        <time>2026-07-09T06:31:31.999Z</time>
      </trkpt>
      <trkpt lat="44.66491" lon="5.96994">
        <ele>1653.76</ele>
        <time>2026-07-09T06:31:45.999Z</time>
      </trkpt>
      <trkpt lat="44.66473" lon="5.96999">
        <ele>1654.37</ele>
        <time>2026-07-09T06:31:59.999Z</time>
      </trkpt>
      <trkpt lat="44.66456" lon="5.97012">
        <ele>1654.63</ele>
        <time>2026-07-09T06:32:15.999Z</time>
      </trkpt>
      <trkpt lat="44.6645" lon="5.97037">
        <ele>1655.41</ele>
        <time>2026-07-09T06:32:31.999Z</time>
      </trkpt>
      <trkpt lat="44.66446" lon="5.97063">
        <ele>1655.58</ele>
        <time>2026-07-09T06:32:45.999Z</time>
      </trkpt>
      <trkpt lat="44.66447" lon="5.9709">
        <ele>1656.93</ele>
        <time>2026-07-09T06:33:01.999Z</time>
      </trkpt>
      <trkpt lat="44.66435" lon="5.9711">
        <ele>1657.48</ele>
        <time>2026-07-09T06:33:17.999Z</time>
      </trkpt>
      <trkpt lat="44.66415" lon="5.97109">
        <ele>1658.54</ele>
        <time>2026-07-09T06:33:33.999Z</time>
      </trkpt>
      <trkpt lat="44.66397" lon="5.97099">
        <ele>1659.93</ele>
        <time>2026-07-09T06:33:47.999Z</time>
      </trkpt>
      <trkpt lat="44.6638" lon="5.97088">
        <ele>1661.31</ele>
        <time>2026-07-09T06:34:03.999Z</time>
      </trkpt>
      <trkpt lat="44.66367" lon="5.97069">
        <ele>1662.76</ele>
        <time>2026-07-09T06:34:21.999Z</time>
      </trkpt>
      <trkpt lat="44.66353" lon="5.9705">
        <ele>1664.81</ele>
        <time>2026-07-09T06:34:45.999Z</time>
      </trkpt>
      <trkpt lat="44.66335" lon="5.97044">
        <ele>1667.75</ele>
        <time>2026-07-09T06:35:11.999Z</time>
      </trkpt>
      <trkpt lat="44.66318" lon="5.9706">
        <ele>1670.61</ele>
        <time>2026-07-09T06:35:29.999Z</time>
      </trkpt>
      <trkpt lat="44.66304" lon="5.97078">
        <ele>1672.81</ele>
        <time>2026-07-09T06:35:45.999Z</time>
      </trkpt>
      <trkpt lat="44.66286" lon="5.97086">
        <ele>1675.43</ele>
        <time>2026-07-09T06:36:06.000Z</time>
      </trkpt>
      <trkpt lat="44.66268" lon="5.97094">
        <ele>1676.69</ele>
        <time>2026-07-09T06:36:46.000Z</time>
      </trkpt>
      <trkpt lat="44.66248" lon="5.971">
        <ele>1678.83</ele>
        <time>2026-07-09T06:37:06.000Z</time>
      </trkpt>
      <trkpt lat="44.66229" lon="5.97106">
        <ele>1681.23</ele>
        <time>2026-07-09T06:37:22.000Z</time>
      </trkpt>
      <trkpt lat="44.66212" lon="5.97114">
        <ele>1683.35</ele>
        <time>2026-07-09T06:37:38.000Z</time>
      </trkpt>
      <trkpt lat="44.66194" lon="5.97126">
        <ele>1685.41</ele>
        <time>2026-07-09T06:37:56.000Z</time>
      </trkpt>
      <trkpt lat="44.66175" lon="5.97134">
        <ele>1688.01</ele>
        <time>2026-07-09T06:38:14.000Z</time>
      </trkpt>
      <trkpt lat="44.66158" lon="5.97144">
        <ele>1690.51</ele>
        <time>2026-07-09T06:38:32.000Z</time>
      </trkpt>
      <trkpt lat="44.66139" lon="5.97153">
        <ele>1692.67</ele>
        <time>2026-07-09T06:38:48.000Z</time>
      </trkpt>
      <trkpt lat="44.66121" lon="5.97154">
        <ele>1694.29</ele>
        <time>2026-07-09T06:39:04.000Z</time>
      </trkpt>
      <trkpt lat="44.66106" lon="5.97137">
        <ele>1695.7</ele>
        <time>2026-07-09T06:39:22.000Z</time>
      </trkpt>
      <trkpt lat="44.66087" lon="5.97126">
        <ele>1697.92</ele>
        <time>2026-07-09T06:39:40.000Z</time>
      </trkpt>
      <trkpt lat="44.66068" lon="5.97122">
        <ele>1699.29</ele>
        <time>2026-07-09T06:39:56.000Z</time>
      </trkpt>
      <trkpt lat="44.66052" lon="5.97106">
        <ele>1700.86</ele>
        <time>2026-07-09T06:40:16.000Z</time>
      </trkpt>
      <trkpt lat="44.66039" lon="5.97085">
        <ele>1703.16</ele>
        <time>2026-07-09T06:40:34.000Z</time>
      </trkpt>
      <trkpt lat="44.66026" lon="5.97065">
        <ele>1705.49</ele>
        <time>2026-07-09T06:40:52.000Z</time>
      </trkpt>
      <trkpt lat="44.66007" lon="5.97058">
        <ele>1707.85</ele>
        <time>2026-07-09T06:41:26.000Z</time>
      </trkpt>
      <trkpt lat="44.65989" lon="5.97058">
        <ele>1709.69</ele>
        <time>2026-07-09T06:41:48.000Z</time>
      </trkpt>
      <trkpt lat="44.65971" lon="5.97068">
        <ele>1712.02</ele>
        <time>2026-07-09T06:42:04.000Z</time>
      </trkpt>
      <trkpt lat="44.65953" lon="5.97074">
        <ele>1713.76</ele>
        <time>2026-07-09T06:42:20.000Z</time>
      </trkpt>
      <trkpt lat="44.65935" lon="5.97084">
        <ele>1716.25</ele>
        <time>2026-07-09T06:42:40.000Z</time>
      </trkpt>
      <trkpt lat="44.65918" lon="5.97097">
        <ele>1718.79</ele>
        <time>2026-07-09T06:42:58.000Z</time>
      </trkpt>
      <trkpt lat="44.65903" lon="5.97113">
        <ele>1720.2</ele>
        <time>2026-07-09T06:43:14.000Z</time>
      </trkpt>
      <trkpt lat="44.65887" lon="5.97128">
        <ele>1721.72</ele>
        <time>2026-07-09T06:43:32.000Z</time>
      </trkpt>
      <trkpt lat="44.65871" lon="5.97143">
        <ele>1723.93</ele>
        <time>2026-07-09T06:43:50.000Z</time>
      </trkpt>
      <trkpt lat="44.65854" lon="5.97155">
        <ele>1725.9</ele>
        <time>2026-07-09T06:44:36.000Z</time>
      </trkpt>
      <trkpt lat="44.65836" lon="5.97167">
        <ele>1728.52</ele>
        <time>2026-07-09T06:44:55.999Z</time>
      </trkpt>
      <trkpt lat="44.65817" lon="5.97178">
        <ele>1731.68</ele>
        <time>2026-07-09T06:45:13.999Z</time>
      </trkpt>
      <trkpt lat="44.65801" lon="5.97192">
        <ele>1732.65</ele>
        <time>2026-07-09T06:45:29.999Z</time>
      </trkpt>
      <trkpt lat="44.65785" lon="5.97206">
        <ele>1733.94</ele>
        <time>2026-07-09T06:46:25.999Z</time>
      </trkpt>
      <trkpt lat="44.6577" lon="5.97223">
        <ele>1735.69</ele>
        <time>2026-07-09T06:46:43.999Z</time>
      </trkpt>
      <trkpt lat="44.65753" lon="5.97233">
        <ele>1737.96</ele>
        <time>2026-07-09T06:46:59.999Z</time>
      </trkpt>
      <trkpt lat="44.65733" lon="5.97228">
        <ele>1739.53</ele>
        <time>2026-07-09T06:47:17.999Z</time>
      </trkpt>
      <trkpt lat="44.65714" lon="5.97232">
        <ele>1741.28</ele>
        <time>2026-07-09T06:47:33.999Z</time>
      </trkpt>
      <trkpt lat="44.65698" lon="5.97245">
        <ele>1742.73</ele>
        <time>2026-07-09T06:47:49.999Z</time>
      </trkpt>
      <trkpt lat="44.65684" lon="5.97264">
        <ele>1743.96</ele>
        <time>2026-07-09T06:48:03.999Z</time>
      </trkpt>
      <trkpt lat="44.65672" lon="5.97285">
        <ele>1745.79</ele>
        <time>2026-07-09T06:48:23.999Z</time>
      </trkpt>
      <trkpt lat="44.65655" lon="5.97295">
        <ele>1748.64</ele>
        <time>2026-07-09T06:48:41.999Z</time>
      </trkpt>
      <trkpt lat="44.6564" lon="5.97313">
        <ele>1750.67</ele>
        <time>2026-07-09T06:49:11.999Z</time>
      </trkpt>
      <trkpt lat="44.65621" lon="5.97319">
        <ele>1753.76</ele>
        <time>2026-07-09T06:49:29.999Z</time>
      </trkpt>
      <trkpt lat="44.65603" lon="5.97323">
        <ele>1755.28</ele>
        <time>2026-07-09T06:49:51.999Z</time>
      </trkpt>
      <trkpt lat="44.65589" lon="5.97341">
        <ele>1758.02</ele>
        <time>2026-07-09T06:50:09.999Z</time>
      </trkpt>
      <trkpt lat="44.6557" lon="5.97345">
        <ele>1760.52</ele>
        <time>2026-07-09T06:50:29.999Z</time>
      </trkpt>
      <trkpt lat="44.65551" lon="5.97345">
        <ele>1762.67</ele>
        <time>2026-07-09T06:50:49.999Z</time>
      </trkpt>
      <trkpt lat="44.65533" lon="5.97342">
        <ele>1765.87</ele>
        <time>2026-07-09T06:51:13.999Z</time>
      </trkpt>
      <trkpt lat="44.65514" lon="5.97342">
        <ele>1767.11</ele>
        <time>2026-07-09T06:51:37.999Z</time>
      </trkpt>
      <trkpt lat="44.655" lon="5.97358">
        <ele>1768.82</ele>
        <time>2026-07-09T06:51:53.999Z</time>
      </trkpt>
      <trkpt lat="44.65486" lon="5.97374">
        <ele>1771.99</ele>
        <time>2026-07-09T06:52:11.999Z</time>
      </trkpt>
      <trkpt lat="44.65467" lon="5.97376">
        <ele>1774.4</ele>
        <time>2026-07-09T06:52:29.999Z</time>
      </trkpt>
      <trkpt lat="44.65451" lon="5.97391">
        <ele>1776.51</ele>
        <time>2026-07-09T06:52:47.999Z</time>
      </trkpt>
      <trkpt lat="44.65436" lon="5.97408">
        <ele>1778.25</ele>
        <time>2026-07-09T06:53:05.999Z</time>
      </trkpt>
      <trkpt lat="44.65426" lon="5.97429">
        <ele>1778.77</ele>
        <time>2026-07-09T06:53:32.000Z</time>
      </trkpt>
      <trkpt lat="44.65408" lon="5.97437">
        <ele>1783.36</ele>
        <time>2026-07-09T06:53:52.000Z</time>
      </trkpt>
      <trkpt lat="44.65394" lon="5.97456">
        <ele>1786.61</ele>
        <time>2026-07-09T06:54:18.000Z</time>
      </trkpt>
      <trkpt lat="44.65378" lon="5.97471">
        <ele>1789.87</ele>
        <time>2026-07-09T06:54:38.000Z</time>
      </trkpt>
      <trkpt lat="44.6536" lon="5.9748">
        <ele>1791.31</ele>
        <time>2026-07-09T06:54:56.000Z</time>
      </trkpt>
      <trkpt lat="44.6534" lon="5.97488">
        <ele>1793.42</ele>
        <time>2026-07-09T06:55:20.000Z</time>
      </trkpt>
      <trkpt lat="44.65329" lon="5.97509">
        <ele>1794.74</ele>
        <time>2026-07-09T06:55:36.000Z</time>
      </trkpt>
      <trkpt lat="44.65323" lon="5.97533">
        <ele>1799.14</ele>
        <time>2026-07-09T06:55:54.000Z</time>
      </trkpt>
      <trkpt lat="44.65309" lon="5.97549">
        <ele>1799.28</ele>
        <time>2026-07-09T06:56:12.000Z</time>
      </trkpt>
      <trkpt lat="44.65295" lon="5.97566">
        <ele>1801.05</ele>
        <time>2026-07-09T06:56:30.000Z</time>
      </trkpt>
      <trkpt lat="44.65274" lon="5.97574">
        <ele>1800.09</ele>
        <time>2026-07-09T06:56:48.000Z</time>
      </trkpt>
      <trkpt lat="44.65255" lon="5.97579">
        <ele>1801.31</ele>
        <time>2026-07-09T06:57:24.000Z</time>
      </trkpt>
      <trkpt lat="44.65236" lon="5.97581">
        <ele>1806.96</ele>
        <time>2026-07-09T06:58:04.000Z</time>
      </trkpt>
      <trkpt lat="44.65218" lon="5.97589">
        <ele>1810.37</ele>
        <time>2026-07-09T06:58:22.000Z</time>
      </trkpt>
      <trkpt lat="44.65201" lon="5.97601">
        <ele>1813.69</ele>
        <time>2026-07-09T06:58:50.000Z</time>
      </trkpt>
      <trkpt lat="44.65183" lon="5.97613">
        <ele>1813.93</ele>
        <time>2026-07-09T06:59:10.000Z</time>
      </trkpt>
      <trkpt lat="44.65167" lon="5.97627">
        <ele>1818.76</ele>
        <time>2026-07-09T06:59:26.000Z</time>
      </trkpt>
      <trkpt lat="44.65149" lon="5.97633">
        <ele>1816.96</ele>
        <time>2026-07-09T06:59:44.000Z</time>
      </trkpt>
      <trkpt lat="44.65132" lon="5.97644">
        <ele>1820.97</ele>
        <time>2026-07-09T07:00:04.000Z</time>
      </trkpt>
      <trkpt lat="44.65115" lon="5.97654">
        <ele>1821.71</ele>
        <time>2026-07-09T07:00:22.000Z</time>
      </trkpt>
      <trkpt lat="44.65099" lon="5.97668">
        <ele>1827.96</ele>
        <time>2026-07-09T07:02:08.999Z</time>
      </trkpt>
      <trkpt lat="44.65081" lon="5.97681">
        <ele>1830.22</ele>
        <time>2026-07-09T07:02:34.999Z</time>
      </trkpt>
      <trkpt lat="44.65061" lon="5.97683">
        <ele>1831.53</ele>
        <time>2026-07-09T07:02:56.999Z</time>
      </trkpt>
      <trkpt lat="44.65042" lon="5.9768">
        <ele>1834.45</ele>
        <time>2026-07-09T07:03:14.999Z</time>
      </trkpt>
      <trkpt lat="44.65024" lon="5.97689">
        <ele>1836.3</ele>
        <time>2026-07-09T07:03:52.999Z</time>
      </trkpt>
      <trkpt lat="44.65006" lon="5.97688">
        <ele>1838.46</ele>
        <time>2026-07-09T07:04:12.999Z</time>
      </trkpt>
      <trkpt lat="44.64986" lon="5.9769">
        <ele>1842.09</ele>
        <time>2026-07-09T07:04:30.999Z</time>
      </trkpt>
      <trkpt lat="44.64967" lon="5.97685">
        <ele>1841.98</ele>
        <time>2026-07-09T07:04:51.999Z</time>
      </trkpt>
      <trkpt lat="44.64949" lon="5.97676">
        <ele>1841.86</ele>
        <time>2026-07-09T07:05:07.999Z</time>
      </trkpt>
      <trkpt lat="44.64931" lon="5.97677">
        <ele>1844.45</ele>
        <time>2026-07-09T07:05:21.999Z</time>
      </trkpt>
      <trkpt lat="44.64916" lon="5.97695">
        <ele>1846.59</ele>
        <time>2026-07-09T07:05:37.999Z</time>
      </trkpt>
      <trkpt lat="44.64898" lon="5.97703">
        <ele>1847.9</ele>
        <time>2026-07-09T07:05:57.999Z</time>
      </trkpt>
      <trkpt lat="44.64878" lon="5.97701">
        <ele>1850.45</ele>
        <time>2026-07-09T07:06:19.999Z</time>
      </trkpt>
      <trkpt lat="44.6486" lon="5.97698">
        <ele>1849.39</ele>
        <time>2026-07-09T07:06:39.999Z</time>
      </trkpt>
      <trkpt lat="44.64843" lon="5.97707">
        <ele>1853.61</ele>
        <time>2026-07-09T07:06:59.999Z</time>
      </trkpt>
      <trkpt lat="44.64824" lon="5.97713">
        <ele>1851.75</ele>
        <time>2026-07-09T07:07:19.999Z</time>
      </trkpt>
      <trkpt lat="44.64807" lon="5.97725">
        <ele>1856.92</ele>
        <time>2026-07-09T07:07:37.999Z</time>
      </trkpt>
      <trkpt lat="44.64788" lon="5.97725">
        <ele>1860.82</ele>
        <time>2026-07-09T07:08:01.999Z</time>
      </trkpt>
      <trkpt lat="44.6477" lon="5.97734">
        <ele>1861.45</ele>
        <time>2026-07-09T07:08:17.999Z</time>
      </trkpt>
      <trkpt lat="44.64752" lon="5.97741">
        <ele>1865.31</ele>
        <time>2026-07-09T07:08:35.999Z</time>
      </trkpt>
      <trkpt lat="44.64735" lon="5.97748">
        <ele>1866.39</ele>
        <time>2026-07-09T07:08:53.999Z</time>
      </trkpt>
      <trkpt lat="44.64718" lon="5.97762">
        <ele>1869.2</ele>
        <time>2026-07-09T07:09:15.999Z</time>
      </trkpt>
      <trkpt lat="44.64702" lon="5.97778">
        <ele>1871.26</ele>
        <time>2026-07-09T07:09:35.999Z</time>
      </trkpt>
      <trkpt lat="44.64687" lon="5.97792">
        <ele>1872.88</ele>
        <time>2026-07-09T07:09:53.999Z</time>
      </trkpt>
      <trkpt lat="44.64668" lon="5.97795">
        <ele>1874.3</ele>
        <time>2026-07-09T07:10:19.999Z</time>
      </trkpt>
      <trkpt lat="44.64651" lon="5.97802">
        <ele>1877.34</ele>
        <time>2026-07-09T07:10:40.000Z</time>
      </trkpt>
      <trkpt lat="44.64633" lon="5.97817">
        <ele>1880.61</ele>
        <time>2026-07-09T07:11:00.000Z</time>
      </trkpt>
      <trkpt lat="44.64615" lon="5.97825">
        <ele>1882.63</ele>
        <time>2026-07-09T07:11:20.000Z</time>
      </trkpt>
      <trkpt lat="44.64596" lon="5.97833">
        <ele>1883.99</ele>
        <time>2026-07-09T07:11:42.000Z</time>
      </trkpt>
      <trkpt lat="44.64577" lon="5.97835">
        <ele>1887.53</ele>
        <time>2026-07-09T07:12:02.000Z</time>
      </trkpt>
      <trkpt lat="44.64559" lon="5.97842">
        <ele>1888.99</ele>
        <time>2026-07-09T07:12:20.000Z</time>
      </trkpt>
      <trkpt lat="44.64541" lon="5.97853">
        <ele>1890.39</ele>
        <time>2026-07-09T07:14:14.000Z</time>
      </trkpt>
      <trkpt lat="44.64524" lon="5.97862">
        <ele>1892.55</ele>
        <time>2026-07-09T07:14:34.000Z</time>
      </trkpt>
      <trkpt lat="44.64505" lon="5.97867">
        <ele>1894.41</ele>
        <time>2026-07-09T07:14:52.000Z</time>
      </trkpt>
      <trkpt lat="44.64486" lon="5.97857">
        <ele>1898</ele>
        <time>2026-07-09T07:15:10.000Z</time>
      </trkpt>
      <trkpt lat="44.64468" lon="5.97855">
        <ele>1901.44</ele>
        <time>2026-07-09T07:15:30.000Z</time>
      </trkpt>
      <trkpt lat="44.6445" lon="5.97866">
        <ele>1903.15</ele>
        <time>2026-07-09T07:15:46.000Z</time>
      </trkpt>
      <trkpt lat="44.64437" lon="5.97883">
        <ele>1906.02</ele>
        <time>2026-07-09T07:16:04.000Z</time>
      </trkpt>
      <trkpt lat="44.64423" lon="5.979">
        <ele>1907.44</ele>
        <time>2026-07-09T07:16:20.000Z</time>
      </trkpt>
      <trkpt lat="44.64404" lon="5.97909">
        <ele>1907.91</ele>
        <time>2026-07-09T07:16:46.000Z</time>
      </trkpt>
      <trkpt lat="44.64385" lon="5.97917">
        <ele>1910.72</ele>
        <time>2026-07-09T07:17:06.000Z</time>
      </trkpt>
      <trkpt lat="44.64368" lon="5.97924">
        <ele>1912.36</ele>
        <time>2026-07-09T07:17:26.000Z</time>
      </trkpt>
      <trkpt lat="44.6435" lon="5.97933">
        <ele>1914.18</ele>
        <time>2026-07-09T07:17:44.000Z</time>
      </trkpt>
      <trkpt lat="44.64332" lon="5.97947">
        <ele>1916.45</ele>
        <time>2026-07-09T07:18:04.000Z</time>
      </trkpt>
      <trkpt lat="44.64316" lon="5.97961">
        <ele>1917.78</ele>
        <time>2026-07-09T07:18:20.000Z</time>
      </trkpt>
      <trkpt lat="44.64301" lon="5.97975">
        <ele>1919.75</ele>
        <time>2026-07-09T07:18:36.000Z</time>
      </trkpt>
      <trkpt lat="44.64291" lon="5.97998">
        <ele>1921.14</ele>
        <time>2026-07-09T07:19:07.999Z</time>
      </trkpt>
      <trkpt lat="44.64278" lon="5.98014">
        <ele>1922.11</ele>
        <time>2026-07-09T07:19:35.999Z</time>
      </trkpt>
      <trkpt lat="44.64259" lon="5.98026">
        <ele>1923.49</ele>
        <time>2026-07-09T07:19:59.999Z</time>
      </trkpt>
      <trkpt lat="44.64246" lon="5.98045">
        <ele>1923.22</ele>
        <time>2026-07-09T07:20:27.999Z</time>
      </trkpt>
      <trkpt lat="44.64229" lon="5.98059">
        <ele>1923.44</ele>
        <time>2026-07-09T07:20:47.999Z</time>
      </trkpt>
      <trkpt lat="44.64214" lon="5.98075">
        <ele>1924.96</ele>
        <time>2026-07-09T07:21:21.999Z</time>
      </trkpt>
      <trkpt lat="44.64194" lon="5.9808">
        <ele>1925.32</ele>
        <time>2026-07-09T07:21:43.999Z</time>
      </trkpt>
      <trkpt lat="44.64178" lon="5.98093">
        <ele>1932.96</ele>
        <time>2026-07-09T07:25:47.999Z</time>
      </trkpt>
      <trkpt lat="44.64166" lon="5.98113">
        <ele>1924.28</ele>
        <time>2026-07-09T07:26:45.999Z</time>
      </trkpt>
      <trkpt lat="44.6415" lon="5.98129">
        <ele>1923.94</ele>
        <time>2026-07-09T07:27:25.999Z</time>
      </trkpt>
      <trkpt lat="44.64144" lon="5.98153">
        <ele>1922.55</ele>
        <time>2026-07-09T07:27:52.000Z</time>
      </trkpt>
      <trkpt lat="44.6416" lon="5.98165">
        <ele>1920.99</ele>
        <time>2026-07-09T07:28:10.000Z</time>
      </trkpt>
      <trkpt lat="44.64176" lon="5.98177">
        <ele>1918.48</ele>
        <time>2026-07-09T07:28:30.000Z</time>
      </trkpt>
      <trkpt lat="44.64189" lon="5.98195">
        <ele>1916.99</ele>
        <time>2026-07-09T07:28:52.000Z</time>
      </trkpt>
      <trkpt lat="44.64188" lon="5.98222">
        <ele>1914.94</ele>
        <time>2026-07-09T07:29:30.000Z</time>
      </trkpt>
      <trkpt lat="44.64176" lon="5.98243">
        <ele>1909.66</ele>
        <time>2026-07-09T07:29:58.000Z</time>
      </trkpt>
      <trkpt lat="44.64157" lon="5.98248">
        <ele>1906.1</ele>
        <time>2026-07-09T07:30:26.000Z</time>
      </trkpt>
      <trkpt lat="44.64154" lon="5.98222">
        <ele>1904.25</ele>
        <time>2026-07-09T07:31:10.000Z</time>
      </trkpt>
      <trkpt lat="44.64146" lon="5.98198">
        <ele>1897.49</ele>
        <time>2026-07-09T07:31:34.000Z</time>
      </trkpt>
      <trkpt lat="44.64127" lon="5.98197">
        <ele>1898.27</ele>
        <time>2026-07-09T07:31:52.000Z</time>
      </trkpt>
      <trkpt lat="44.6411" lon="5.98187">
        <ele>1890.78</ele>
        <time>2026-07-09T07:32:32.000Z</time>
      </trkpt>
      <trkpt lat="44.64094" lon="5.98173">
        <ele>1889.33</ele>
        <time>2026-07-09T07:33:16.000Z</time>
      </trkpt>
      <trkpt lat="44.64077" lon="5.98163">
        <ele>1884.99</ele>
        <time>2026-07-09T07:33:48.000Z</time>
      </trkpt>
      <trkpt lat="44.64059" lon="5.98151">
        <ele>1878.01</ele>
        <time>2026-07-09T07:34:14.000Z</time>
      </trkpt>
      <trkpt lat="44.64043" lon="5.98138">
        <ele>1871.11</ele>
        <time>2026-07-09T07:34:38.000Z</time>
      </trkpt>
      <trkpt lat="44.64046" lon="5.98164">
        <ele>1865.96</ele>
        <time>2026-07-09T07:36:21.999Z</time>
      </trkpt>
      <trkpt lat="44.64058" lon="5.98182">
        <ele>1862.32</ele>
        <time>2026-07-09T07:36:39.999Z</time>
      </trkpt>
      <trkpt lat="44.64042" lon="5.98195">
        <ele>1849.98</ele>
        <time>2026-07-09T07:38:21.999Z</time>
      </trkpt>
      <trkpt lat="44.64025" lon="5.98185">
        <ele>1848.79</ele>
        <time>2026-07-09T07:38:39.999Z</time>
      </trkpt>
      <trkpt lat="44.64014" lon="5.98165">
        <ele>1846.5</ele>
        <time>2026-07-09T07:40:25.999Z</time>
      </trkpt>
      <trkpt lat="44.64003" lon="5.98145">
        <ele>1843.01</ele>
        <time>2026-07-09T07:40:55.999Z</time>
      </trkpt>
      <trkpt lat="44.64002" lon="5.98116">
        <ele>1835.07</ele>
        <time>2026-07-09T07:42:21.999Z</time>
      </trkpt>
      <trkpt lat="44.64014" lon="5.98097">
        <ele>1830.45</ele>
        <time>2026-07-09T07:42:53.999Z</time>
      </trkpt>
      <trkpt lat="44.64007" lon="5.98071">
        <ele>1831.37</ele>
        <time>2026-07-09T07:43:09.999Z</time>
      </trkpt>
      <trkpt lat="44.64013" lon="5.98045">
        <ele>1829.63</ele>
        <time>2026-07-09T07:43:25.999Z</time>
      </trkpt>
      <trkpt lat="44.64014" lon="5.9802">
        <ele>1825.09</ele>
        <time>2026-07-09T07:43:45.999Z</time>
      </trkpt>
      <trkpt lat="44.63995" lon="5.98013">
        <ele>1812.62</ele>
        <time>2026-07-09T07:45:04.000Z</time>
      </trkpt>
      <trkpt lat="44.63977" lon="5.98015">
        <ele>1802.47</ele>
        <time>2026-07-09T07:45:48.000Z</time>
      </trkpt>
      <trkpt lat="44.63959" lon="5.98017">
        <ele>1790.04</ele>
        <time>2026-07-09T07:46:54.000Z</time>
      </trkpt>
      <trkpt lat="44.63944" lon="5.98002">
        <ele>1785.62</ele>
        <time>2026-07-09T07:47:28.000Z</time>
      </trkpt>
      <trkpt lat="44.63925" lon="5.97996">
        <ele>1777.12</ele>
        <time>2026-07-09T07:48:26.000Z</time>
      </trkpt>
      <trkpt lat="44.63911" lon="5.97979">
        <ele>1769.78</ele>
        <time>2026-07-09T07:49:02.000Z</time>
      </trkpt>
      <trkpt lat="44.63898" lon="5.97961">
        <ele>1767.05</ele>
        <time>2026-07-09T07:49:28.000Z</time>
      </trkpt>
      <trkpt lat="44.63888" lon="5.97939">
        <ele>1762.47</ele>
        <time>2026-07-09T07:49:52.000Z</time>
      </trkpt>
      <trkpt lat="44.63872" lon="5.97923">
        <ele>1759</ele>
        <time>2026-07-09T07:50:18.000Z</time>
      </trkpt>
      <trkpt lat="44.63861" lon="5.97903">
        <ele>1752.55</ele>
        <time>2026-07-09T07:51:00.000Z</time>
      </trkpt>
      <trkpt lat="44.63851" lon="5.9788">
        <ele>1750.08</ele>
        <time>2026-07-09T07:51:24.000Z</time>
      </trkpt>
      <trkpt lat="44.6384" lon="5.97859">
        <ele>1746.31</ele>
        <time>2026-07-09T07:51:50.000Z</time>
      </trkpt>
      <trkpt lat="44.63829" lon="5.97839">
        <ele>1745.05</ele>
        <time>2026-07-09T07:52:08.000Z</time>
      </trkpt>
      <trkpt lat="44.63816" lon="5.97821">
        <ele>1742.59</ele>
        <time>2026-07-09T07:52:40.000Z</time>
      </trkpt>
      <trkpt lat="44.638" lon="5.97805">
        <ele>1740.28</ele>
        <time>2026-07-09T07:53:00.000Z</time>
      </trkpt>
      <trkpt lat="44.63787" lon="5.97785">
        <ele>1738.04</ele>
        <time>2026-07-09T07:53:17.999Z</time>
      </trkpt>
      <trkpt lat="44.63771" lon="5.97767">
        <ele>1735.9</ele>
        <time>2026-07-09T07:53:35.999Z</time>
      </trkpt>
      <trkpt lat="44.63754" lon="5.97753">
        <ele>1733.21</ele>
        <time>2026-07-09T07:53:53.999Z</time>
      </trkpt>
      <trkpt lat="44.63737" lon="5.97738">
        <ele>1729.22</ele>
        <time>2026-07-09T07:54:11.999Z</time>
      </trkpt>
      <trkpt lat="44.63721" lon="5.97725">
        <ele>1725.68</ele>
        <time>2026-07-09T07:54:31.999Z</time>
      </trkpt>
      <trkpt lat="44.63704" lon="5.97715">
        <ele>1720.58</ele>
        <time>2026-07-09T07:54:53.999Z</time>
      </trkpt>
      <trkpt lat="44.63688" lon="5.97701">
        <ele>1717.02</ele>
        <time>2026-07-09T07:56:31.999Z</time>
      </trkpt>
      <trkpt lat="44.6367" lon="5.97694">
        <ele>1713.13</ele>
        <time>2026-07-09T07:57:07.999Z</time>
      </trkpt>
      <trkpt lat="44.63651" lon="5.97689">
        <ele>1709.49</ele>
        <time>2026-07-09T07:57:31.999Z</time>
      </trkpt>
      <trkpt lat="44.63632" lon="5.97683">
        <ele>1707.39</ele>
        <time>2026-07-09T07:57:57.999Z</time>
      </trkpt>
      <trkpt lat="44.63613" lon="5.97677">
        <ele>1704.71</ele>
        <time>2026-07-09T07:58:15.999Z</time>
      </trkpt>
      <trkpt lat="44.63596" lon="5.97665">
        <ele>1701.59</ele>
        <time>2026-07-09T07:58:39.999Z</time>
      </trkpt>
      <trkpt lat="44.63589" lon="5.97639">
        <ele>1698.45</ele>
        <time>2026-07-09T07:59:31.999Z</time>
      </trkpt>
      <trkpt lat="44.63591" lon="5.97612">
        <ele>1694.96</ele>
        <time>2026-07-09T07:59:51.999Z</time>
      </trkpt>
      <trkpt lat="44.63583" lon="5.97588">
        <ele>1692.99</ele>
        <time>2026-07-09T08:00:11.999Z</time>
      </trkpt>
      <trkpt lat="44.63568" lon="5.97572">
        <ele>1689.63</ele>
        <time>2026-07-09T08:00:31.999Z</time>
      </trkpt>
      <trkpt lat="44.63553" lon="5.97559">
        <ele>1685.38</ele>
        <time>2026-07-09T08:00:55.999Z</time>
      </trkpt>
      <trkpt lat="44.63545" lon="5.97536">
        <ele>1683.76</ele>
        <time>2026-07-09T08:01:50.000Z</time>
      </trkpt>
      <trkpt lat="44.63536" lon="5.97512">
        <ele>1685.39</ele>
        <time>2026-07-09T08:02:16.000Z</time>
      </trkpt>
      <trkpt lat="44.63528" lon="5.97487">
        <ele>1685.36</ele>
        <time>2026-07-09T08:02:44.000Z</time>
      </trkpt>
      <trkpt lat="44.63519" lon="5.97461">
        <ele>1686.23</ele>
        <time>2026-07-09T08:03:10.000Z</time>
      </trkpt>
      <trkpt lat="44.63507" lon="5.97441">
        <ele>1685.93</ele>
        <time>2026-07-09T08:03:34.000Z</time>
      </trkpt>
      <trkpt lat="44.63494" lon="5.97421">
        <ele>1685.92</ele>
        <time>2026-07-09T08:04:00.000Z</time>
      </trkpt>
      <trkpt lat="44.63486" lon="5.97398">
        <ele>1690.48</ele>
        <time>2026-07-09T08:04:36.000Z</time>
      </trkpt>
      <trkpt lat="44.63471" lon="5.97383">
        <ele>1693.97</ele>
        <time>2026-07-09T08:05:08.000Z</time>
      </trkpt>
      <trkpt lat="44.63466" lon="5.97358">
        <ele>1697.74</ele>
        <time>2026-07-09T08:07:20.000Z</time>
      </trkpt>
      <trkpt lat="44.63473" lon="5.97333">
        <ele>1703.85</ele>
        <time>2026-07-09T08:08:00.000Z</time>
      </trkpt>
      <trkpt lat="44.63471" lon="5.97307">
        <ele>1709.45</ele>
        <time>2026-07-09T08:08:54.000Z</time>
      </trkpt>
      <trkpt lat="44.63466" lon="5.9728">
        <ele>1713.45</ele>
        <time>2026-07-09T08:09:28.000Z</time>
      </trkpt>
      <trkpt lat="44.63458" lon="5.97256">
        <ele>1718.58</ele>
        <time>2026-07-09T08:10:04.000Z</time>
      </trkpt>
      <trkpt lat="44.63458" lon="5.9723">
        <ele>1723.09</ele>
        <time>2026-07-09T08:10:41.999Z</time>
      </trkpt>
      <trkpt lat="44.63449" lon="5.97206">
        <ele>1729.09</ele>
        <time>2026-07-09T08:11:21.999Z</time>
      </trkpt>
      <trkpt lat="44.63444" lon="5.9718">
        <ele>1734.12</ele>
        <time>2026-07-09T08:12:11.999Z</time>
      </trkpt>
      <trkpt lat="44.6343" lon="5.97161">
        <ele>1737.38</ele>
        <time>2026-07-09T08:12:43.999Z</time>
      </trkpt>
      <trkpt lat="44.63411" lon="5.97158">
        <ele>1739.71</ele>
        <time>2026-07-09T08:13:09.999Z</time>
      </trkpt>
      <trkpt lat="44.63403" lon="5.97135">
        <ele>1743.04</ele>
        <time>2026-07-09T08:13:47.999Z</time>
      </trkpt>
      <trkpt lat="44.63404" lon="5.97109">
        <ele>1749.31</ele>
        <time>2026-07-09T08:14:55.999Z</time>
      </trkpt>
      <trkpt lat="44.6339" lon="5.97091">
        <ele>1753.84</ele>
        <time>2026-07-09T08:15:39.999Z</time>
      </trkpt>
      <trkpt lat="44.63381" lon="5.97068">
        <ele>1762.76</ele>
        <time>2026-07-09T08:18:56.000Z</time>
      </trkpt>
      <trkpt lat="44.63363" lon="5.97076">
        <ele>1767.57</ele>
        <time>2026-07-09T08:19:28.000Z</time>
      </trkpt>
      <trkpt lat="44.63348" lon="5.97063">
        <ele>1778.86</ele>
        <time>2026-07-09T08:20:36.000Z</time>
      </trkpt>
      <trkpt lat="44.63332" lon="5.9705">
        <ele>1791.57</ele>
        <time>2026-07-09T08:22:08.000Z</time>
      </trkpt>
      <trkpt lat="44.63324" lon="5.97026">
        <ele>1796.98</ele>
        <time>2026-07-09T08:23:02.000Z</time>
      </trkpt>
      <trkpt lat="44.63306" lon="5.97024">
        <ele>1813.24</ele>
        <time>2026-07-09T08:26:30.000Z</time>
      </trkpt>
      <trkpt lat="44.63288" lon="5.97021">
        <ele>1823.51</ele>
        <time>2026-07-09T08:27:43.999Z</time>
      </trkpt>
      <trkpt lat="44.6328" lon="5.96998">
        <ele>1841.05</ele>
        <time>2026-07-09T08:29:51.999Z</time>
      </trkpt>
      <trkpt lat="44.63263" lon="5.97009">
        <ele>1844.54</ele>
        <time>2026-07-09T08:30:49.999Z</time>
      </trkpt>
      <trkpt lat="44.63254" lon="5.97032">
        <ele>1853.24</ele>
        <time>2026-07-09T08:31:45.999Z</time>
      </trkpt>
      <trkpt lat="44.63237" lon="5.97041">
        <ele>1867.02</ele>
        <time>2026-07-09T08:33:41.999Z</time>
      </trkpt>
      <trkpt lat="44.6322" lon="5.97033">
        <ele>1876.29</ele>
        <time>2026-07-09T08:34:27.999Z</time>
      </trkpt>
      <trkpt lat="44.63215" lon="5.97006">
        <ele>1879.69</ele>
        <time>2026-07-09T08:37:16.000Z</time>
      </trkpt>
      <trkpt lat="44.63212" lon="5.96976">
        <ele>1881.63</ele>
        <time>2026-07-09T08:38:02.000Z</time>
      </trkpt>
      <trkpt lat="44.63225" lon="5.9696">
        <ele>1883.84</ele>
        <time>2026-07-09T08:42:28.000Z</time>
      </trkpt>
      <trkpt lat="44.63238" lon="5.96942">
        <ele>1885.58</ele>
        <time>2026-07-09T08:46:07.999Z</time>
      </trkpt>
      <trkpt lat="44.63244" lon="5.96918">
        <ele>1884.04</ele>
        <time>2026-07-09T08:46:33.999Z</time>
      </trkpt>
      <trkpt lat="44.63254" lon="5.96896">
        <ele>1877.31</ele>
        <time>2026-07-09T08:47:17.999Z</time>
      </trkpt>
      <trkpt lat="44.63265" lon="5.96873">
        <ele>1872.03</ele>
        <time>2026-07-09T08:49:15.999Z</time>
      </trkpt>
      <trkpt lat="44.63272" lon="5.96849">
        <ele>1862.69</ele>
        <time>2026-07-09T08:50:01.999Z</time>
      </trkpt>
      <trkpt lat="44.63285" lon="5.96829">
        <ele>1859.64</ele>
        <time>2026-07-09T08:50:33.999Z</time>
      </trkpt>
      <trkpt lat="44.63299" lon="5.96813">
        <ele>1857.6</ele>
        <time>2026-07-09T08:51:01.999Z</time>
      </trkpt>
      <trkpt lat="44.63314" lon="5.96794">
        <ele>1861.21</ele>
        <time>2026-07-09T08:51:43.999Z</time>
      </trkpt>
      <trkpt lat="44.63331" lon="5.96779">
        <ele>1862.27</ele>
        <time>2026-07-09T08:52:05.999Z</time>
      </trkpt>
      <trkpt lat="44.63346" lon="5.96765">
        <ele>1861.38</ele>
        <time>2026-07-09T08:52:25.999Z</time>
      </trkpt>
      <trkpt lat="44.63358" lon="5.96745">
        <ele>1866.78</ele>
        <time>2026-07-09T08:52:56.000Z</time>
      </trkpt>
      <trkpt lat="44.6337" lon="5.96724">
        <ele>1865.29</ele>
        <time>2026-07-09T08:53:42.000Z</time>
      </trkpt>
      <trkpt lat="44.63385" lon="5.96709">
        <ele>1866.67</ele>
        <time>2026-07-09T08:54:20.000Z</time>
      </trkpt>
      <trkpt lat="44.63399" lon="5.96693">
        <ele>1871.59</ele>
        <time>2026-07-09T08:55:06.000Z</time>
      </trkpt>
      <trkpt lat="44.63416" lon="5.96679">
        <ele>1882.31</ele>
        <time>2026-07-09T08:58:03.000Z</time>
      </trkpt>
      <trkpt lat="44.63431" lon="5.96663">
        <ele>1889.91</ele>
        <time>2026-07-09T08:58:43.000Z</time>
      </trkpt>
      <trkpt lat="44.63446" lon="5.96647">
        <ele>1898.89</ele>
        <time>2026-07-09T08:59:41.000Z</time>
      </trkpt>
      <trkpt lat="44.63452" lon="5.96624">
        <ele>1906.37</ele>
        <time>2026-07-09T09:00:41.000Z</time>
      </trkpt>
      <trkpt lat="44.63459" lon="5.966">
        <ele>1914.91</ele>
        <time>2026-07-09T09:02:18.999Z</time>
      </trkpt>
      <trkpt lat="44.63471" lon="5.96581">
        <ele>1927.41</ele>
        <time>2026-07-09T09:04:18.999Z</time>
      </trkpt>
      <trkpt lat="44.63487" lon="5.96567">
        <ele>1935.39</ele>
        <time>2026-07-09T09:05:28.999Z</time>
      </trkpt>
      <trkpt lat="44.63493" lon="5.96543">
        <ele>1948.02</ele>
        <time>2026-07-09T09:07:02.999Z</time>
      </trkpt>
      <trkpt lat="44.63499" lon="5.96518">
        <ele>1954.32</ele>
        <time>2026-07-09T09:08:22.999Z</time>
      </trkpt>
      <trkpt lat="44.63505" lon="5.96493">
        <ele>1961.55</ele>
        <time>2026-07-09T09:13:25.000Z</time>
      </trkpt>
      <trkpt lat="44.63512" lon="5.96469">
        <ele>1967.45</ele>
        <time>2026-07-09T09:14:28.000Z</time>
      </trkpt>
      <trkpt lat="44.63513" lon="5.96443">
        <ele>1974.75</ele>
        <time>2026-07-09T09:16:34.000Z</time>
      </trkpt>
      <trkpt lat="44.63513" lon="5.96418">
        <ele>1982.21</ele>
        <time>2026-07-09T09:17:38.000Z</time>
      </trkpt>
      <trkpt lat="44.63516" lon="5.96392">
        <ele>1986.12</ele>
        <time>2026-07-09T09:18:51.999Z</time>
      </trkpt>
      <trkpt lat="44.63524" lon="5.96364">
        <ele>1990.58</ele>
        <time>2026-07-09T09:19:37.999Z</time>
      </trkpt>
      <trkpt lat="44.63531" lon="5.9634">
        <ele>1995.56</ele>
        <time>2026-07-09T09:19:53.999Z</time>
      </trkpt>
      <trkpt lat="44.63535" lon="5.96315">
        <ele>1996.91</ele>
        <time>2026-07-09T09:21:11.999Z</time>
      </trkpt>
      <trkpt lat="44.63517" lon="5.96316">
        <ele>2001.98</ele>
        <time>2026-07-09T09:21:47.999Z</time>
      </trkpt>
      <trkpt lat="44.635" lon="5.96308">
        <ele>2011.01</ele>
        <time>2026-07-09T09:23:34.999Z</time>
      </trkpt>
      <trkpt lat="44.63481" lon="5.96303">
        <ele>2017.34</ele>
        <time>2026-07-09T09:25:16.999Z</time>
      </trkpt>
      <trkpt lat="44.63474" lon="5.96279">
        <ele>2029.59</ele>
        <time>2026-07-09T09:27:27.000Z</time>
      </trkpt>
      <trkpt lat="44.63461" lon="5.96298">
        <ele>2035.22</ele>
        <time>2026-07-09T09:30:21.000Z</time>
      </trkpt>
      <trkpt lat="44.63455" lon="5.96274">
        <ele>2045.55</ele>
        <time>2026-07-09T09:32:19.000Z</time>
      </trkpt>
      <trkpt lat="44.63455" lon="5.96248">
        <ele>2055.87</ele>
        <time>2026-07-09T09:37:31.999Z</time>
      </trkpt>
      <trkpt lat="44.63447" lon="5.96225">
        <ele>2068.02</ele>
        <time>2026-07-09T09:39:23.999Z</time>
      </trkpt>
      <trkpt lat="44.63428" lon="5.9622">
        <ele>2075.62</ele>
        <time>2026-07-09T09:40:47.999Z</time>
      </trkpt>
      <trkpt lat="44.63446" lon="5.96217">
        <ele>2081.26</ele>
        <time>2026-07-09T09:42:41.999Z</time>
      </trkpt>
      <trkpt lat="44.63443" lon="5.96193">
        <ele>2088.92</ele>
        <time>2026-07-09T09:43:57.999Z</time>
      </trkpt>
      <trkpt lat="44.63457" lon="5.96207">
        <ele>2093.55</ele>
        <time>2026-07-09T09:45:26.000Z</time>
      </trkpt>
      <trkpt lat="44.63476" lon="5.96211">
        <ele>2123.83</ele>
        <time>2026-07-09T09:53:09.999Z</time>
      </trkpt>
      <trkpt lat="44.63494" lon="5.96207">
        <ele>2133.38</ele>
        <time>2026-07-09T09:54:37.999Z</time>
      </trkpt>
      <trkpt lat="44.63505" lon="5.96187">
        <ele>2135.84</ele>
        <time>2026-07-09T09:57:19.999Z</time>
      </trkpt>
      <trkpt lat="44.63519" lon="5.96171">
        <ele>2142.87</ele>
        <time>2026-07-09T09:59:07.999Z</time>
      </trkpt>
      <trkpt lat="44.6353" lon="5.96151">
        <ele>2150.61</ele>
        <time>2026-07-09T10:00:15.999Z</time>
      </trkpt>
      <trkpt lat="44.63531" lon="5.96125">
        <ele>2157.66</ele>
        <time>2026-07-09T10:01:50.000Z</time>
      </trkpt>
      <trkpt lat="44.63519" lon="5.96105">
        <ele>2169.41</ele>
        <time>2026-07-09T10:03:00.000Z</time>
      </trkpt>
      <trkpt lat="44.6352" lon="5.9608">
        <ele>2174.12</ele>
        <time>2026-07-09T10:04:48.000Z</time>
      </trkpt>
      <trkpt lat="44.63521" lon="5.96052">
        <ele>2175.66</ele>
        <time>2026-07-09T10:05:48.000Z</time>
      </trkpt>
      <trkpt lat="44.63513" lon="5.96028">
        <ele>2180.11</ele>
        <time>2026-07-09T10:06:32.000Z</time>
      </trkpt>
      <trkpt lat="44.63506" lon="5.96004">
        <ele>2186.15</ele>
        <time>2026-07-09T10:07:52.000Z</time>
      </trkpt>
      <trkpt lat="44.63507" lon="5.95978">
        <ele>2193.19</ele>
        <time>2026-07-09T10:10:09.999Z</time>
      </trkpt>
      <trkpt lat="44.63516" lon="5.95957">
        <ele>2196.98</ele>
        <time>2026-07-09T10:11:13.999Z</time>
      </trkpt>
      <trkpt lat="44.63518" lon="5.95907">
        <ele>2201.36</ele>
        <time>2026-07-09T10:17:48.999Z</time>
      </trkpt>
      <trkpt lat="44.63524" lon="5.95883">
        <ele>2209.4</ele>
        <time>2026-07-09T10:19:17.000Z</time>
      </trkpt>
      <trkpt lat="44.63543" lon="5.95812">
        <ele>2229.96</ele>
        <time>2026-07-09T10:23:27.000Z</time>
      </trkpt>
      <trkpt lat="44.6358" lon="5.95668">
        <ele>2272.7</ele>
        <time>2026-07-09T10:30:45.999Z</time>
      </trkpt>
      <trkpt lat="44.63584" lon="5.95676">
        <ele>2283.71</ele>
        <time>2026-07-09T11:01:52.999Z</time>
      </trkpt>
      <trkpt lat="44.63578" lon="5.95701">
        <ele>2287.33</ele>
        <time>2026-07-09T11:02:24.999Z</time>
      </trkpt>
      <trkpt lat="44.63587" lon="5.95723">
        <ele>2288.18</ele>
        <time>2026-07-09T11:04:40.999Z</time>
      </trkpt>
      <trkpt lat="44.63582" lon="5.95698">
        <ele>2289.92</ele>
        <time>2026-07-09T11:06:48.999Z</time>
      </trkpt>
      <trkpt lat="44.6356" lon="5.95548">
        <ele>2282.31</ele>
        <time>2026-07-09T11:15:15.000Z</time>
      </trkpt>
      <trkpt lat="44.63568" lon="5.95525">
        <ele>2276.23</ele>
        <time>2026-07-09T11:15:53.000Z</time>
      </trkpt>
      <trkpt lat="44.63568" lon="5.95496">
        <ele>2273.22</ele>
        <time>2026-07-09T11:16:25.000Z</time>
      </trkpt>
      <trkpt lat="44.6357" lon="5.95471">
        <ele>2272.03</ele>
        <time>2026-07-09T11:17:05.000Z</time>
      </trkpt>
      <trkpt lat="44.63582" lon="5.95452">
        <ele>2262.45</ele>
        <time>2026-07-09T11:17:59.000Z</time>
      </trkpt>
      <trkpt lat="44.63595" lon="5.95472">
        <ele>2245.78</ele>
        <time>2026-07-09T11:19:26.999Z</time>
      </trkpt>
      <trkpt lat="44.6361" lon="5.95486">
        <ele>2232.14</ele>
        <time>2026-07-09T11:21:30.999Z</time>
      </trkpt>
      <trkpt lat="44.63604" lon="5.9551">
        <ele>2223.01</ele>
        <time>2026-07-09T11:22:16.999Z</time>
      </trkpt>
      <trkpt lat="44.63589" lon="5.95528">
        <ele>2218.51</ele>
        <time>2026-07-09T11:22:38.999Z</time>
      </trkpt>
      <trkpt lat="44.63587" lon="5.95555">
        <ele>2215.79</ele>
        <time>2026-07-09T11:22:54.999Z</time>
      </trkpt>
      <trkpt lat="44.63593" lon="5.9558">
        <ele>2212.95</ele>
        <time>2026-07-09T11:25:22.999Z</time>
      </trkpt>
      <trkpt lat="44.63595" lon="5.95605">
        <ele>2210.34</ele>
        <time>2026-07-09T11:25:46.999Z</time>
      </trkpt>
      <trkpt lat="44.63595" lon="5.95632">
        <ele>2206.09</ele>
        <time>2026-07-09T11:26:11.999Z</time>
      </trkpt>
      <trkpt lat="44.6359" lon="5.95657">
        <ele>2201.08</ele>
        <time>2026-07-09T11:27:12.000Z</time>
      </trkpt>
      <trkpt lat="44.63604" lon="5.95674">
        <ele>2197.31</ele>
        <time>2026-07-09T11:27:48.000Z</time>
      </trkpt>
      <trkpt lat="44.636" lon="5.95699">
        <ele>2194.88</ele>
        <time>2026-07-09T11:28:58.000Z</time>
      </trkpt>
      <trkpt lat="44.63612" lon="5.95719">
        <ele>2195.83</ele>
        <time>2026-07-09T11:29:26.000Z</time>
      </trkpt>
      <trkpt lat="44.6362" lon="5.95743">
        <ele>2193.16</ele>
        <time>2026-07-09T11:31:40.000Z</time>
      </trkpt>
      <trkpt lat="44.63638" lon="5.95751">
        <ele>2185.19</ele>
        <time>2026-07-09T11:32:38.000Z</time>
      </trkpt>
      <trkpt lat="44.63652" lon="5.95767">
        <ele>2179.93</ele>
        <time>2026-07-09T11:33:14.000Z</time>
      </trkpt>
      <trkpt lat="44.63664" lon="5.95788">
        <ele>2171.46</ele>
        <time>2026-07-09T11:34:28.000Z</time>
      </trkpt>
      <trkpt lat="44.63679" lon="5.95802">
        <ele>2159.85</ele>
        <time>2026-07-09T11:36:19.999Z</time>
      </trkpt>
      <trkpt lat="44.63672" lon="5.95826">
        <ele>2157.14</ele>
        <time>2026-07-09T11:36:37.999Z</time>
      </trkpt>
      <trkpt lat="44.63688" lon="5.95838">
        <ele>2152.88</ele>
        <time>2026-07-09T11:37:25.999Z</time>
      </trkpt>
      <trkpt lat="44.63706" lon="5.95846">
        <ele>2148.19</ele>
        <time>2026-07-09T11:37:43.999Z</time>
      </trkpt>
      <trkpt lat="44.63724" lon="5.95852">
        <ele>2138.9</ele>
        <time>2026-07-09T11:38:25.999Z</time>
      </trkpt>
      <trkpt lat="44.63741" lon="5.95842">
        <ele>2131.46</ele>
        <time>2026-07-09T11:39:05.999Z</time>
      </trkpt>
      <trkpt lat="44.63757" lon="5.95856">
        <ele>2126.09</ele>
        <time>2026-07-09T11:40:31.999Z</time>
      </trkpt>
      <trkpt lat="44.63774" lon="5.95867">
        <ele>2123.68</ele>
        <time>2026-07-09T11:40:57.999Z</time>
      </trkpt>
      <trkpt lat="44.6379" lon="5.9588">
        <ele>2118.65</ele>
        <time>2026-07-09T11:41:39.999Z</time>
      </trkpt>
      <trkpt lat="44.63808" lon="5.95887">
        <ele>2113.46</ele>
        <time>2026-07-09T11:42:13.999Z</time>
      </trkpt>
      <trkpt lat="44.63825" lon="5.95898">
        <ele>2111.15</ele>
        <time>2026-07-09T11:42:49.999Z</time>
      </trkpt>
      <trkpt lat="44.63841" lon="5.95909">
        <ele>2112.04</ele>
        <time>2026-07-09T11:43:47.999Z</time>
      </trkpt>
      <trkpt lat="44.63854" lon="5.95928">
        <ele>2110.58</ele>
        <time>2026-07-09T11:44:26.000Z</time>
      </trkpt>
      <trkpt lat="44.63866" lon="5.95946">
        <ele>2111.36</ele>
        <time>2026-07-09T11:44:56.000Z</time>
      </trkpt>
      <trkpt lat="44.6387" lon="5.95972">
        <ele>2109.58</ele>
        <time>2026-07-09T11:47:20.000Z</time>
      </trkpt>
      <trkpt lat="44.63856" lon="5.95987">
        <ele>2110.07</ele>
        <time>2026-07-09T11:48:00.000Z</time>
      </trkpt>
      <trkpt lat="44.63867" lon="5.96007">
        <ele>2110.93</ele>
        <time>2026-07-09T11:51:40.000Z</time>
      </trkpt>
      <trkpt lat="44.63877" lon="5.96029">
        <ele>2113.28</ele>
        <time>2026-07-09T11:52:55.999Z</time>
      </trkpt>
      <trkpt lat="44.63885" lon="5.96053">
        <ele>2115.48</ele>
        <time>2026-07-09T11:53:39.999Z</time>
      </trkpt>
      <trkpt lat="44.63901" lon="5.9607">
        <ele>2108.55</ele>
        <time>2026-07-09T11:54:29.999Z</time>
      </trkpt>
      <trkpt lat="44.6392" lon="5.9607">
        <ele>2099.21</ele>
        <time>2026-07-09T11:55:37.999Z</time>
      </trkpt>
      <trkpt lat="44.63937" lon="5.96076">
        <ele>2085.51</ele>
        <time>2026-07-09T11:56:21.999Z</time>
      </trkpt>
      <trkpt lat="44.63938" lon="5.96102">
        <ele>2072.01</ele>
        <time>2026-07-09T11:57:51.999Z</time>
      </trkpt>
      <trkpt lat="44.63933" lon="5.96128">
        <ele>2066.48</ele>
        <time>2026-07-09T11:59:07.999Z</time>
      </trkpt>
      <trkpt lat="44.63921" lon="5.9615">
        <ele>2063.43</ele>
        <time>2026-07-09T11:59:53.999Z</time>
      </trkpt>
      <trkpt lat="44.63913" lon="5.96173">
        <ele>2062.95</ele>
        <time>2026-07-09T12:00:13.999Z</time>
      </trkpt>
      <trkpt lat="44.63914" lon="5.96199">
        <ele>2064.75</ele>
        <time>2026-07-09T12:00:43.999Z</time>
      </trkpt>
      <trkpt lat="44.63916" lon="5.96224">
        <ele>2069.73</ele>
        <time>2026-07-09T12:02:02.000Z</time>
      </trkpt>
      <trkpt lat="44.63917" lon="5.9625">
        <ele>2075.27</ele>
        <time>2026-07-09T12:02:48.000Z</time>
      </trkpt>
      <trkpt lat="44.63909" lon="5.96273">
        <ele>2079.58</ele>
        <time>2026-07-09T12:03:38.000Z</time>
      </trkpt>
      <trkpt lat="44.63901" lon="5.96297">
        <ele>2082.03</ele>
        <time>2026-07-09T12:04:10.000Z</time>
      </trkpt>
      <trkpt lat="44.63904" lon="5.96323">
        <ele>2086.4</ele>
        <time>2026-07-09T12:05:14.000Z</time>
      </trkpt>
      <trkpt lat="44.63895" lon="5.96345">
        <ele>2090.26</ele>
        <time>2026-07-09T12:06:16.000Z</time>
      </trkpt>
      <trkpt lat="44.63901" lon="5.96321">
        <ele>2097.79</ele>
        <time>2026-07-09T12:08:18.000Z</time>
      </trkpt>
      <trkpt lat="44.63884" lon="5.96328">
        <ele>2107.64</ele>
        <time>2026-07-09T12:10:19.999Z</time>
      </trkpt>
      <trkpt lat="44.639" lon="5.96314">
        <ele>2102.23</ele>
        <time>2026-07-09T12:14:37.999Z</time>
      </trkpt>
      <trkpt lat="44.63891" lon="5.96339">
        <ele>2098.89</ele>
        <time>2026-07-09T12:15:11.999Z</time>
      </trkpt>
      <trkpt lat="44.63901" lon="5.96363">
        <ele>2095.43</ele>
        <time>2026-07-09T12:15:55.999Z</time>
      </trkpt>
      <trkpt lat="44.63909" lon="5.9634">
        <ele>2090.12</ele>
        <time>2026-07-09T12:16:49.999Z</time>
      </trkpt>
      <trkpt lat="44.63914" lon="5.96315">
        <ele>2086.59</ele>
        <time>2026-07-09T12:17:39.999Z</time>
      </trkpt>
      <trkpt lat="44.63919" lon="5.9629">
        <ele>2082.96</ele>
        <time>2026-07-09T12:18:09.999Z</time>
      </trkpt>
      <trkpt lat="44.63937" lon="5.9629">
        <ele>2070.9</ele>
        <time>2026-07-09T12:18:52.000Z</time>
      </trkpt>
      <trkpt lat="44.63943" lon="5.96315">
        <ele>2065.24</ele>
        <time>2026-07-09T12:19:18.000Z</time>
      </trkpt>
      <trkpt lat="44.63949" lon="5.9634">
        <ele>2061</ele>
        <time>2026-07-09T12:20:02.000Z</time>
      </trkpt>
      <trkpt lat="44.63951" lon="5.96367">
        <ele>2059.72</ele>
        <time>2026-07-09T12:20:32.000Z</time>
      </trkpt>
      <trkpt lat="44.63956" lon="5.96339">
        <ele>2043.77</ele>
        <time>2026-07-09T12:27:17.000Z</time>
      </trkpt>
      <trkpt lat="44.63954" lon="5.96313">
        <ele>2058.41</ele>
        <time>2026-07-09T12:27:30.999Z</time>
      </trkpt>
      <trkpt lat="44.6397" lon="5.963">
        <ele>2049.33</ele>
        <time>2026-07-09T12:28:06.999Z</time>
      </trkpt>
      <trkpt lat="44.63982" lon="5.96281">
        <ele>2040.77</ele>
        <time>2026-07-09T12:29:10.999Z</time>
      </trkpt>
      <trkpt lat="44.64" lon="5.96275">
        <ele>2029.36</ele>
        <time>2026-07-09T12:29:50.999Z</time>
      </trkpt>
      <trkpt lat="44.64018" lon="5.96286">
        <ele>2023.05</ele>
        <time>2026-07-09T12:30:54.999Z</time>
      </trkpt>
      <trkpt lat="44.64036" lon="5.96289">
        <ele>2009.6</ele>
        <time>2026-07-09T12:32:30.999Z</time>
      </trkpt>
      <trkpt lat="44.64053" lon="5.96297">
        <ele>2001.09</ele>
        <time>2026-07-09T12:33:20.999Z</time>
      </trkpt>
      <trkpt lat="44.6407" lon="5.96286">
        <ele>1990.97</ele>
        <time>2026-07-09T12:34:06.999Z</time>
      </trkpt>
      <trkpt lat="44.64087" lon="5.96276">
        <ele>1978.62</ele>
        <time>2026-07-09T12:35:00.999Z</time>
      </trkpt>
      <trkpt lat="44.64101" lon="5.96259">
        <ele>1972.4</ele>
        <time>2026-07-09T12:35:44.999Z</time>
      </trkpt>
      <trkpt lat="44.64114" lon="5.96237">
        <ele>1971.54</ele>
        <time>2026-07-09T12:36:23.000Z</time>
      </trkpt>
      <trkpt lat="44.64129" lon="5.96222">
        <ele>1959.9</ele>
        <time>2026-07-09T12:37:11.000Z</time>
      </trkpt>
      <trkpt lat="44.64147" lon="5.96218">
        <ele>1957.84</ele>
        <time>2026-07-09T12:37:31.000Z</time>
      </trkpt>
      <trkpt lat="44.64166" lon="5.96218">
        <ele>1956.12</ele>
        <time>2026-07-09T12:37:53.000Z</time>
      </trkpt>
      <trkpt lat="44.64181" lon="5.96233">
        <ele>1955.11</ele>
        <time>2026-07-09T12:38:11.000Z</time>
      </trkpt>
      <trkpt lat="44.64196" lon="5.96247">
        <ele>1955.11</ele>
        <time>2026-07-09T12:38:33.000Z</time>
      </trkpt>
      <trkpt lat="44.64211" lon="5.96261">
        <ele>1957.33</ele>
        <time>2026-07-09T12:38:57.000Z</time>
      </trkpt>
      <trkpt lat="44.64219" lon="5.96286">
        <ele>1956.01</ele>
        <time>2026-07-09T12:39:19.000Z</time>
      </trkpt>
      <trkpt lat="44.64225" lon="5.96311">
        <ele>1953.67</ele>
        <time>2026-07-09T12:39:47.000Z</time>
      </trkpt>
      <trkpt lat="44.6423" lon="5.96336">
        <ele>1953.16</ele>
        <time>2026-07-09T12:40:09.000Z</time>
      </trkpt>
      <trkpt lat="44.6425" lon="5.9634">
        <ele>1951.47</ele>
        <time>2026-07-09T12:51:08.999Z</time>
      </trkpt>
      <trkpt lat="44.64268" lon="5.96337">
        <ele>1946.96</ele>
        <time>2026-07-09T12:51:30.999Z</time>
      </trkpt>
      <trkpt lat="44.64286" lon="5.96339">
        <ele>1941.62</ele>
        <time>2026-07-09T12:51:58.999Z</time>
      </trkpt>
      <trkpt lat="44.64305" lon="5.96334">
        <ele>1938.59</ele>
        <time>2026-07-09T12:52:20.999Z</time>
      </trkpt>
      <trkpt lat="44.64316" lon="5.96309">
        <ele>1932.04</ele>
        <time>2026-07-09T12:53:00.999Z</time>
      </trkpt>
      <trkpt lat="44.64317" lon="5.96283">
        <ele>1929.43</ele>
        <time>2026-07-09T12:53:57.000Z</time>
      </trkpt>
      <trkpt lat="44.64319" lon="5.96257">
        <ele>1924.78</ele>
        <time>2026-07-09T12:54:27.000Z</time>
      </trkpt>
      <trkpt lat="44.64326" lon="5.96233">
        <ele>1919.14</ele>
        <time>2026-07-09T12:54:53.000Z</time>
      </trkpt>
      <trkpt lat="44.64345" lon="5.9623">
        <ele>1910.25</ele>
        <time>2026-07-09T12:55:23.000Z</time>
      </trkpt>
      <trkpt lat="44.64363" lon="5.96223">
        <ele>1895.2</ele>
        <time>2026-07-09T12:56:09.000Z</time>
      </trkpt>
      <trkpt lat="44.64381" lon="5.96224">
        <ele>1884.31</ele>
        <time>2026-07-09T12:56:42.000Z</time>
      </trkpt>
      <trkpt lat="44.64393" lon="5.96243">
        <ele>1872.01</ele>
        <time>2026-07-09T12:57:18.000Z</time>
      </trkpt>
      <trkpt lat="44.64406" lon="5.96261">
        <ele>1862.97</ele>
        <time>2026-07-09T12:57:50.000Z</time>
      </trkpt>
      <trkpt lat="44.64423" lon="5.96274">
        <ele>1855.81</ele>
        <time>2026-07-09T13:00:20.000Z</time>
      </trkpt>
      <trkpt lat="44.6444" lon="5.96283">
        <ele>1852.68</ele>
        <time>2026-07-09T13:00:40.000Z</time>
      </trkpt>
      <trkpt lat="44.64459" lon="5.96286">
        <ele>1846.65</ele>
        <time>2026-07-09T13:01:02.000Z</time>
      </trkpt>
      <trkpt lat="44.64477" lon="5.96295">
        <ele>1840.34</ele>
        <time>2026-07-09T13:01:24.000Z</time>
      </trkpt>
      <trkpt lat="44.64488" lon="5.96315">
        <ele>1837.15</ele>
        <time>2026-07-09T13:01:42.000Z</time>
      </trkpt>
      <trkpt lat="44.64504" lon="5.96329">
        <ele>1836.99</ele>
        <time>2026-07-09T13:01:57.999Z</time>
      </trkpt>
      <trkpt lat="44.64522" lon="5.96335">
        <ele>1835.26</ele>
        <time>2026-07-09T13:02:13.999Z</time>
      </trkpt>
      <trkpt lat="44.64538" lon="5.96346">
        <ele>1833.58</ele>
        <time>2026-07-09T13:02:29.999Z</time>
      </trkpt>
      <trkpt lat="44.64554" lon="5.96359">
        <ele>1833.12</ele>
        <time>2026-07-09T13:02:47.999Z</time>
      </trkpt>
      <trkpt lat="44.6457" lon="5.96376">
        <ele>1835.19</ele>
        <time>2026-07-09T13:03:07.999Z</time>
      </trkpt>
      <trkpt lat="44.64587" lon="5.96385">
        <ele>1834.57</ele>
        <time>2026-07-09T13:03:27.999Z</time>
      </trkpt>
      <trkpt lat="44.64605" lon="5.96395">
        <ele>1833.16</ele>
        <time>2026-07-09T13:03:45.999Z</time>
      </trkpt>
      <trkpt lat="44.64624" lon="5.96405">
        <ele>1831.16</ele>
        <time>2026-07-09T13:04:05.999Z</time>
      </trkpt>
      <trkpt lat="44.64641" lon="5.9642">
        <ele>1825.52</ele>
        <time>2026-07-09T13:04:51.999Z</time>
      </trkpt>
      <trkpt lat="44.64655" lon="5.9644">
        <ele>1826.11</ele>
        <time>2026-07-09T13:05:09.999Z</time>
      </trkpt>
      <trkpt lat="44.64662" lon="5.96464">
        <ele>1822.43</ele>
        <time>2026-07-09T13:05:25.999Z</time>
      </trkpt>
      <trkpt lat="44.64669" lon="5.96488">
        <ele>1820.23</ele>
        <time>2026-07-09T13:05:45.999Z</time>
      </trkpt>
      <trkpt lat="44.64676" lon="5.96511">
        <ele>1819.7</ele>
        <time>2026-07-09T13:06:03.999Z</time>
      </trkpt>
      <trkpt lat="44.64687" lon="5.96533">
        <ele>1816.94</ele>
        <time>2026-07-09T13:06:23.999Z</time>
      </trkpt>
      <trkpt lat="44.64696" lon="5.96557">
        <ele>1812.43</ele>
        <time>2026-07-09T13:06:43.999Z</time>
      </trkpt>
      <trkpt lat="44.64712" lon="5.96569">
        <ele>1811.47</ele>
        <time>2026-07-09T13:06:59.999Z</time>
      </trkpt>
      <trkpt lat="44.64729" lon="5.96581">
        <ele>1811.51</ele>
        <time>2026-07-09T13:07:17.999Z</time>
      </trkpt>
      <trkpt lat="44.64747" lon="5.96591">
        <ele>1811.94</ele>
        <time>2026-07-09T13:07:37.999Z</time>
      </trkpt>
      <trkpt lat="44.64755" lon="5.96616">
        <ele>1810.98</ele>
        <time>2026-07-09T13:07:57.999Z</time>
      </trkpt>
      <trkpt lat="44.64756" lon="5.96644">
        <ele>1807.44</ele>
        <time>2026-07-09T13:08:15.999Z</time>
      </trkpt>
      <trkpt lat="44.64772" lon="5.96659">
        <ele>1807.11</ele>
        <time>2026-07-09T13:08:33.999Z</time>
      </trkpt>
      <trkpt lat="44.6479" lon="5.96659">
        <ele>1810.5</ele>
        <time>2026-07-09T13:08:59.999Z</time>
      </trkpt>
      <trkpt lat="44.64809" lon="5.9666">
        <ele>1813.91</ele>
        <time>2026-07-09T13:09:41.999Z</time>
      </trkpt>
      <trkpt lat="44.64827" lon="5.96658">
        <ele>1815.36</ele>
        <time>2026-07-09T13:10:01.999Z</time>
      </trkpt>
      <trkpt lat="44.64845" lon="5.96663">
        <ele>1817.22</ele>
        <time>2026-07-09T13:10:22.000Z</time>
      </trkpt>
      <trkpt lat="44.64862" lon="5.96672">
        <ele>1816.82</ele>
        <time>2026-07-09T13:11:40.000Z</time>
      </trkpt>
      <trkpt lat="44.64869" lon="5.96695">
        <ele>1813.96</ele>
        <time>2026-07-09T13:12:20.000Z</time>
      </trkpt>
      <trkpt lat="44.64878" lon="5.96719">
        <ele>1811.04</ele>
        <time>2026-07-09T13:12:44.000Z</time>
      </trkpt>
      <trkpt lat="44.64889" lon="5.96739">
        <ele>1808.82</ele>
        <time>2026-07-09T13:13:02.000Z</time>
      </trkpt>
      <trkpt lat="44.64903" lon="5.96761">
        <ele>1808.04</ele>
        <time>2026-07-09T13:13:20.000Z</time>
      </trkpt>
      <trkpt lat="44.64915" lon="5.9678">
        <ele>1808.08</ele>
        <time>2026-07-09T13:13:40.000Z</time>
      </trkpt>
      <trkpt lat="44.6493" lon="5.96796">
        <ele>1805.63</ele>
        <time>2026-07-09T13:14:08.000Z</time>
      </trkpt>
      <trkpt lat="44.64942" lon="5.96815">
        <ele>1801.48</ele>
        <time>2026-07-09T13:14:30.000Z</time>
      </trkpt>
      <trkpt lat="44.6496" lon="5.96821">
        <ele>1797.74</ele>
        <time>2026-07-09T13:14:54.000Z</time>
      </trkpt>
      <trkpt lat="44.64977" lon="5.96836">
        <ele>1792.6</ele>
        <time>2026-07-09T13:15:20.000Z</time>
      </trkpt>
      <trkpt lat="44.64993" lon="5.96852">
        <ele>1789.09</ele>
        <time>2026-07-09T13:15:42.000Z</time>
      </trkpt>
      <trkpt lat="44.6501" lon="5.96866">
        <ele>1785.42</ele>
        <time>2026-07-09T13:16:02.000Z</time>
      </trkpt>
      <trkpt lat="44.65024" lon="5.96881">
        <ele>1784.37</ele>
        <time>2026-07-09T13:16:22.000Z</time>
      </trkpt>
      <trkpt lat="44.6504" lon="5.96893">
        <ele>1787.31</ele>
        <time>2026-07-09T13:17:08.000Z</time>
      </trkpt>
      <trkpt lat="44.65052" lon="5.96913">
        <ele>1789.07</ele>
        <time>2026-07-09T13:17:44.000Z</time>
      </trkpt>
      <trkpt lat="44.65054" lon="5.96939">
        <ele>1787.37</ele>
        <time>2026-07-09T13:18:08.000Z</time>
      </trkpt>
      <trkpt lat="44.65056" lon="5.96964">
        <ele>1783.69</ele>
        <time>2026-07-09T13:18:26.000Z</time>
      </trkpt>
      <trkpt lat="44.65063" lon="5.96989">
        <ele>1781.95</ele>
        <time>2026-07-09T13:18:44.000Z</time>
      </trkpt>
      <trkpt lat="44.65066" lon="5.97014">
        <ele>1783.09</ele>
        <time>2026-07-09T13:19:01.999Z</time>
      </trkpt>
      <trkpt lat="44.65064" lon="5.9704">
        <ele>1784.22</ele>
        <time>2026-07-09T13:19:23.999Z</time>
      </trkpt>
      <trkpt lat="44.65055" lon="5.97063">
        <ele>1782.08</ele>
        <time>2026-07-09T13:20:03.999Z</time>
      </trkpt>
      <trkpt lat="44.6504" lon="5.97076">
        <ele>1781.47</ele>
        <time>2026-07-09T13:20:21.999Z</time>
      </trkpt>
      <trkpt lat="44.65028" lon="5.97095">
        <ele>1780.13</ele>
        <time>2026-07-09T13:20:37.999Z</time>
      </trkpt>
      <trkpt lat="44.6502" lon="5.97118">
        <ele>1778.08</ele>
        <time>2026-07-09T13:20:53.999Z</time>
      </trkpt>
      <trkpt lat="44.65011" lon="5.97145">
        <ele>1775.84</ele>
        <time>2026-07-09T13:21:11.999Z</time>
      </trkpt>
      <trkpt lat="44.65003" lon="5.97169">
        <ele>1774.68</ele>
        <time>2026-07-09T13:21:29.999Z</time>
      </trkpt>
      <trkpt lat="44.65002" lon="5.97196">
        <ele>1773.13</ele>
        <time>2026-07-09T13:21:45.999Z</time>
      </trkpt>
      <trkpt lat="44.64999" lon="5.97222">
        <ele>1771.57</ele>
        <time>2026-07-09T13:22:01.999Z</time>
      </trkpt>
      <trkpt lat="44.64998" lon="5.97251">
        <ele>1771.04</ele>
        <time>2026-07-09T13:22:19.999Z</time>
      </trkpt>
      <trkpt lat="44.64992" lon="5.97276">
        <ele>1770.15</ele>
        <time>2026-07-09T13:22:35.999Z</time>
      </trkpt>
      <trkpt lat="44.65011" lon="5.97279">
        <ele>1767.13</ele>
        <time>2026-07-09T13:23:15.999Z</time>
      </trkpt>
      <trkpt lat="44.65027" lon="5.97268">
        <ele>1764.59</ele>
        <time>2026-07-09T13:23:31.999Z</time>
      </trkpt>
      <trkpt lat="44.65046" lon="5.97266">
        <ele>1762.01</ele>
        <time>2026-07-09T13:23:49.999Z</time>
      </trkpt>
      <trkpt lat="44.65065" lon="5.97261">
        <ele>1761.2</ele>
        <time>2026-07-09T13:24:13.999Z</time>
      </trkpt>
      <trkpt lat="44.65083" lon="5.97258">
        <ele>1768.15</ele>
        <time>2026-07-09T13:24:47.999Z</time>
      </trkpt>
      <trkpt lat="44.651" lon="5.97271">
        <ele>1768.04</ele>
        <time>2026-07-09T13:25:23.999Z</time>
      </trkpt>
      <trkpt lat="44.65111" lon="5.97292">
        <ele>1768.49</ele>
        <time>2026-07-09T13:25:41.999Z</time>
      </trkpt>
      <trkpt lat="44.6513" lon="5.97287">
        <ele>1766.82</ele>
        <time>2026-07-09T13:26:09.999Z</time>
      </trkpt>
      <trkpt lat="44.65143" lon="5.97269">
        <ele>1762.32</ele>
        <time>2026-07-09T13:26:41.999Z</time>
      </trkpt>
      <trkpt lat="44.65161" lon="5.97269">
        <ele>1758.66</ele>
        <time>2026-07-09T13:27:38.000Z</time>
      </trkpt>
      <trkpt lat="44.6518" lon="5.9727">
        <ele>1761.97</ele>
        <time>2026-07-09T13:28:08.000Z</time>
      </trkpt>
      <trkpt lat="44.65198" lon="5.97281">
        <ele>1765.59</ele>
        <time>2026-07-09T13:28:36.000Z</time>
      </trkpt>
      <trkpt lat="44.65217" lon="5.97282">
        <ele>1769.38</ele>
        <time>2026-07-09T13:28:58.000Z</time>
      </trkpt>
      <trkpt lat="44.65234" lon="5.97289">
        <ele>1770.15</ele>
        <time>2026-07-09T13:29:18.000Z</time>
      </trkpt>
      <trkpt lat="44.65253" lon="5.97297">
        <ele>1771.89</ele>
        <time>2026-07-09T13:29:40.000Z</time>
      </trkpt>
      <trkpt lat="44.6527" lon="5.97305">
        <ele>1772.33</ele>
        <time>2026-07-09T13:30:02.000Z</time>
      </trkpt>
      <trkpt lat="44.65269" lon="5.97331">
        <ele>1776.64</ele>
        <time>2026-07-09T13:30:38.000Z</time>
      </trkpt>
      <trkpt lat="44.65283" lon="5.9735">
        <ele>1778.03</ele>
        <time>2026-07-09T13:31:00.000Z</time>
      </trkpt>
      <trkpt lat="44.65296" lon="5.97369">
        <ele>1778.52</ele>
        <time>2026-07-09T13:31:20.000Z</time>
      </trkpt>
      <trkpt lat="44.65312" lon="5.97388">
        <ele>1780.91</ele>
        <time>2026-07-09T13:31:46.000Z</time>
      </trkpt>
      <trkpt lat="44.65331" lon="5.97397">
        <ele>1782.17</ele>
        <time>2026-07-09T13:32:10.000Z</time>
      </trkpt>
      <trkpt lat="44.65348" lon="5.9741">
        <ele>1783.43</ele>
        <time>2026-07-09T13:32:32.000Z</time>
      </trkpt>
      <trkpt lat="44.65363" lon="5.97426">
        <ele>1783.71</ele>
        <time>2026-07-09T13:32:52.000Z</time>
      </trkpt>
      <trkpt lat="44.65381" lon="5.97425">
        <ele>1784.13</ele>
        <time>2026-07-09T13:33:14.000Z</time>
      </trkpt>
      <trkpt lat="44.65398" lon="5.97418">
        <ele>1785.05</ele>
        <time>2026-07-09T13:33:46.000Z</time>
      </trkpt>
      <trkpt lat="44.65416" lon="5.97428">
        <ele>1785.86</ele>
        <time>2026-07-09T13:34:16.000Z</time>
      </trkpt>
      <trkpt lat="44.65434" lon="5.97418">
        <ele>1786.46</ele>
        <time>2026-07-09T13:34:40.000Z</time>
      </trkpt>
      <trkpt lat="44.65448" lon="5.97398">
        <ele>1785.44</ele>
        <time>2026-07-09T13:34:58.000Z</time>
      </trkpt>
      <trkpt lat="44.65462" lon="5.97379">
        <ele>1784.29</ele>
        <time>2026-07-09T13:35:16.000Z</time>
      </trkpt>
      <trkpt lat="44.65481" lon="5.97371">
        <ele>1781.22</ele>
        <time>2026-07-09T13:35:36.000Z</time>
      </trkpt>
      <trkpt lat="44.655" lon="5.97363">
        <ele>1779.41</ele>
        <time>2026-07-09T13:35:56.000Z</time>
      </trkpt>
      <trkpt lat="44.65512" lon="5.97344">
        <ele>1776.85</ele>
        <time>2026-07-09T13:36:11.999Z</time>
      </trkpt>
      <trkpt lat="44.65531" lon="5.97337">
        <ele>1775.79</ele>
        <time>2026-07-09T13:36:29.999Z</time>
      </trkpt>
      <trkpt lat="44.6555" lon="5.97343">
        <ele>1772.82</ele>
        <time>2026-07-09T13:36:49.999Z</time>
      </trkpt>
      <trkpt lat="44.65569" lon="5.97342">
        <ele>1769.71</ele>
        <time>2026-07-09T13:37:19.999Z</time>
      </trkpt>
      <trkpt lat="44.65589" lon="5.97342">
        <ele>1768.78</ele>
        <time>2026-07-09T13:37:45.999Z</time>
      </trkpt>
      <trkpt lat="44.65603" lon="5.97321">
        <ele>1765.36</ele>
        <time>2026-07-09T13:38:17.999Z</time>
      </trkpt>
      <trkpt lat="44.65622" lon="5.97317">
        <ele>1762.9</ele>
        <time>2026-07-09T13:38:35.999Z</time>
      </trkpt>
      <trkpt lat="44.65641" lon="5.97315">
        <ele>1760.14</ele>
        <time>2026-07-09T13:38:53.999Z</time>
      </trkpt>
      <trkpt lat="44.65655" lon="5.97295">
        <ele>1758.06</ele>
        <time>2026-07-09T13:39:09.999Z</time>
      </trkpt>
      <trkpt lat="44.65671" lon="5.97282">
        <ele>1755.83</ele>
        <time>2026-07-09T13:39:27.999Z</time>
      </trkpt>
      <trkpt lat="44.65686" lon="5.97267">
        <ele>1753.95</ele>
        <time>2026-07-09T13:39:45.999Z</time>
      </trkpt>
      <trkpt lat="44.65699" lon="5.97245">
        <ele>1752.12</ele>
        <time>2026-07-09T13:40:01.999Z</time>
      </trkpt>
      <trkpt lat="44.65715" lon="5.97231">
        <ele>1750.01</ele>
        <time>2026-07-09T13:40:21.999Z</time>
      </trkpt>
      <trkpt lat="44.65734" lon="5.97223">
        <ele>1748.78</ele>
        <time>2026-07-09T13:40:37.999Z</time>
      </trkpt>
      <trkpt lat="44.65752" lon="5.97227">
        <ele>1747.23</ele>
        <time>2026-07-09T13:40:55.999Z</time>
      </trkpt>
      <trkpt lat="44.65771" lon="5.9722">
        <ele>1744.98</ele>
        <time>2026-07-09T13:41:15.999Z</time>
      </trkpt>
      <trkpt lat="44.65786" lon="5.97202">
        <ele>1743.63</ele>
        <time>2026-07-09T13:41:41.999Z</time>
      </trkpt>
      <trkpt lat="44.65803" lon="5.97189">
        <ele>1741.32</ele>
        <time>2026-07-09T13:42:19.999Z</time>
      </trkpt>
      <trkpt lat="44.65818" lon="5.97177">
        <ele>1738.85</ele>
        <time>2026-07-09T13:42:53.999Z</time>
      </trkpt>
      <trkpt lat="44.65835" lon="5.97165">
        <ele>1737.03</ele>
        <time>2026-07-09T13:43:25.999Z</time>
      </trkpt>
      <trkpt lat="44.65852" lon="5.97153">
        <ele>1735.76</ele>
        <time>2026-07-09T13:44:03.999Z</time>
      </trkpt>
      <trkpt lat="44.65869" lon="5.97142">
        <ele>1734.14</ele>
        <time>2026-07-09T13:44:19.999Z</time>
      </trkpt>
      <trkpt lat="44.65886" lon="5.97128">
        <ele>1731.36</ele>
        <time>2026-07-09T13:44:36.000Z</time>
      </trkpt>
      <trkpt lat="44.65902" lon="5.9711">
        <ele>1729.82</ele>
        <time>2026-07-09T13:44:54.000Z</time>
      </trkpt>
      <trkpt lat="44.65919" lon="5.97095">
        <ele>1728</ele>
        <time>2026-07-09T13:45:14.000Z</time>
      </trkpt>
      <trkpt lat="44.65936" lon="5.97084">
        <ele>1726.42</ele>
        <time>2026-07-09T13:45:32.000Z</time>
      </trkpt>
      <trkpt lat="44.65952" lon="5.97071">
        <ele>1724.05</ele>
        <time>2026-07-09T13:45:48.000Z</time>
      </trkpt>
      <trkpt lat="44.6597" lon="5.97065">
        <ele>1721.8</ele>
        <time>2026-07-09T13:46:04.000Z</time>
      </trkpt>
      <trkpt lat="44.65987" lon="5.97058">
        <ele>1719.68</ele>
        <time>2026-07-09T13:46:20.000Z</time>
      </trkpt>
      <trkpt lat="44.66005" lon="5.97055">
        <ele>1718.2</ele>
        <time>2026-07-09T13:46:36.000Z</time>
      </trkpt>
      <trkpt lat="44.66024" lon="5.9706">
        <ele>1715.67</ele>
        <time>2026-07-09T13:46:54.000Z</time>
      </trkpt>
      <trkpt lat="44.66038" lon="5.97079">
        <ele>1714</ele>
        <time>2026-07-09T13:47:12.000Z</time>
      </trkpt>
      <trkpt lat="44.66051" lon="5.97099">
        <ele>1712.13</ele>
        <time>2026-07-09T13:47:28.000Z</time>
      </trkpt>
      <trkpt lat="44.66066" lon="5.97114">
        <ele>1709.61</ele>
        <time>2026-07-09T13:47:44.000Z</time>
      </trkpt>
      <trkpt lat="44.66083" lon="5.97123">
        <ele>1707.82</ele>
        <time>2026-07-09T13:48:00.000Z</time>
      </trkpt>
      <trkpt lat="44.66102" lon="5.9713">
        <ele>1705.78</ele>
        <time>2026-07-09T13:48:16.000Z</time>
      </trkpt>
      <trkpt lat="44.66117" lon="5.97146">
        <ele>1703.99</ele>
        <time>2026-07-09T13:48:34.000Z</time>
      </trkpt>
      <trkpt lat="44.66137" lon="5.97152">
        <ele>1702.4</ele>
        <time>2026-07-09T13:48:54.000Z</time>
      </trkpt>
      <trkpt lat="44.66154" lon="5.97141">
        <ele>1700.16</ele>
        <time>2026-07-09T13:49:12.000Z</time>
      </trkpt>
      <trkpt lat="44.66172" lon="5.97129">
        <ele>1696.53</ele>
        <time>2026-07-09T13:49:44.000Z</time>
      </trkpt>
      <trkpt lat="44.66189" lon="5.97121">
        <ele>1696.33</ele>
        <time>2026-07-09T13:50:02.000Z</time>
      </trkpt>
      <trkpt lat="44.66208" lon="5.97113">
        <ele>1695.46</ele>
        <time>2026-07-09T13:50:36.000Z</time>
      </trkpt>
      <trkpt lat="44.66225" lon="5.97102">
        <ele>1691.62</ele>
        <time>2026-07-09T13:51:02.000Z</time>
      </trkpt>
      <trkpt lat="44.66243" lon="5.97095">
        <ele>1689.79</ele>
        <time>2026-07-09T13:51:20.000Z</time>
      </trkpt>
      <trkpt lat="44.66261" lon="5.97089">
        <ele>1687.92</ele>
        <time>2026-07-09T13:51:36.000Z</time>
      </trkpt>
      <trkpt lat="44.66279" lon="5.97085">
        <ele>1685.67</ele>
        <time>2026-07-09T13:51:52.000Z</time>
      </trkpt>
      <trkpt lat="44.66297" lon="5.97074">
        <ele>1683.17</ele>
        <time>2026-07-09T13:52:10.000Z</time>
      </trkpt>
      <trkpt lat="44.66314" lon="5.97061">
        <ele>1681.3</ele>
        <time>2026-07-09T13:52:26.000Z</time>
      </trkpt>
      <trkpt lat="44.66328" lon="5.97046">
        <ele>1679.94</ele>
        <time>2026-07-09T13:52:42.000Z</time>
      </trkpt>
      <trkpt lat="44.66347" lon="5.97038">
        <ele>1678.05</ele>
        <time>2026-07-09T13:53:00.000Z</time>
      </trkpt>
      <trkpt lat="44.66363" lon="5.97053">
        <ele>1676.12</ele>
        <time>2026-07-09T13:53:17.999Z</time>
      </trkpt>
      <trkpt lat="44.66376" lon="5.97073">
        <ele>1673.35</ele>
        <time>2026-07-09T13:53:35.999Z</time>
      </trkpt>
      <trkpt lat="44.66391" lon="5.9709">
        <ele>1671</ele>
        <time>2026-07-09T13:53:59.999Z</time>
      </trkpt>
      <trkpt lat="44.66409" lon="5.97098">
        <ele>1669.53</ele>
        <time>2026-07-09T13:54:15.999Z</time>
      </trkpt>
      <trkpt lat="44.66427" lon="5.97105">
        <ele>1667.88</ele>
        <time>2026-07-09T13:54:31.999Z</time>
      </trkpt>
      <trkpt lat="44.66445" lon="5.97093">
        <ele>1667.44</ele>
        <time>2026-07-09T13:54:53.999Z</time>
      </trkpt>
      <trkpt lat="44.66444" lon="5.97066">
        <ele>1666.07</ele>
        <time>2026-07-09T13:55:11.999Z</time>
      </trkpt>
      <trkpt lat="44.66447" lon="5.9704">
        <ele>1664.71</ele>
        <time>2026-07-09T13:55:27.999Z</time>
      </trkpt>
      <trkpt lat="44.66451" lon="5.97014">
        <ele>1663.9</ele>
        <time>2026-07-09T13:55:43.999Z</time>
      </trkpt>
      <trkpt lat="44.66467" lon="5.96999">
        <ele>1663.36</ele>
        <time>2026-07-09T13:55:59.999Z</time>
      </trkpt>
      <trkpt lat="44.66486" lon="5.96991">
        <ele>1663.12</ele>
        <time>2026-07-09T13:56:15.999Z</time>
      </trkpt>
      <trkpt lat="44.66506" lon="5.96986">
        <ele>1661.78</ele>
        <time>2026-07-09T13:56:31.999Z</time>
      </trkpt>
      <trkpt lat="44.66525" lon="5.96987">
        <ele>1660.72</ele>
        <time>2026-07-09T13:56:47.999Z</time>
      </trkpt>
      <trkpt lat="44.66543" lon="5.96986">
        <ele>1660.49</ele>
        <time>2026-07-09T13:57:03.999Z</time>
      </trkpt>
      <trkpt lat="44.66563" lon="5.96986">
        <ele>1660.49</ele>
        <time>2026-07-09T13:57:21.999Z</time>
      </trkpt>
      <trkpt lat="44.66581" lon="5.96987">
        <ele>1659.95</ele>
        <time>2026-07-09T13:57:35.999Z</time>
      </trkpt>
      <trkpt lat="44.666" lon="5.9699">
        <ele>1659.57</ele>
        <time>2026-07-09T13:57:51.999Z</time>
      </trkpt>
      <trkpt lat="44.66617" lon="5.96976">
        <ele>1659.55</ele>
        <time>2026-07-09T13:58:07.999Z</time>
      </trkpt>
      <trkpt lat="44.66632" lon="5.96959">
        <ele>1659.97</ele>
        <time>2026-07-09T13:58:33.999Z</time>
      </trkpt>
      <trkpt lat="44.6665" lon="5.96947">
        <ele>1659.84</ele>
        <time>2026-07-09T13:58:49.999Z</time>
      </trkpt>
      <trkpt lat="44.66667" lon="5.96937">
        <ele>1656.48</ele>
        <time>2026-07-09T13:59:11.999Z</time>
      </trkpt>
      <trkpt lat="44.66683" lon="5.96924">
        <ele>1654.46</ele>
        <time>2026-07-09T13:59:29.999Z</time>
      </trkpt>
      <trkpt lat="44.66702" lon="5.96915">
        <ele>1652.58</ele>
        <time>2026-07-09T13:59:47.999Z</time>
      </trkpt>
      <trkpt lat="44.66716" lon="5.96897">
        <ele>1651.84</ele>
        <time>2026-07-09T14:00:03.999Z</time>
      </trkpt>
      <trkpt lat="44.66729" lon="5.96874">
        <ele>1652.39</ele>
        <time>2026-07-09T14:00:19.999Z</time>
      </trkpt>
      <trkpt lat="44.66745" lon="5.96861">
        <ele>1651.26</ele>
        <time>2026-07-09T14:00:35.999Z</time>
      </trkpt>
      <trkpt lat="44.66761" lon="5.96848">
        <ele>1649.33</ele>
        <time>2026-07-09T14:00:51.999Z</time>
      </trkpt>
      <trkpt lat="44.66777" lon="5.96834">
        <ele>1647.08</ele>
        <time>2026-07-09T14:01:09.999Z</time>
      </trkpt>
      <trkpt lat="44.66793" lon="5.96817">
        <ele>1646</ele>
        <time>2026-07-09T14:01:25.999Z</time>
      </trkpt>
      <trkpt lat="44.6681" lon="5.96809">
        <ele>1643.84</ele>
        <time>2026-07-09T14:01:42.000Z</time>
      </trkpt>
      <trkpt lat="44.66829" lon="5.96801">
        <ele>1640.59</ele>
        <time>2026-07-09T14:01:58.000Z</time>
      </trkpt>
      <trkpt lat="44.66845" lon="5.96784">
        <ele>1639.63</ele>
        <time>2026-07-09T14:02:16.000Z</time>
      </trkpt>
      <trkpt lat="44.66855" lon="5.96762">
        <ele>1638.45</ele>
        <time>2026-07-09T14:02:32.000Z</time>
      </trkpt>
      <trkpt lat="44.66864" lon="5.96737">
        <ele>1637.46</ele>
        <time>2026-07-09T14:02:50.000Z</time>
      </trkpt>
      <trkpt lat="44.66874" lon="5.96715">
        <ele>1637.22</ele>
        <time>2026-07-09T14:03:06.000Z</time>
      </trkpt>
      <trkpt lat="44.66883" lon="5.96691">
        <ele>1636.56</ele>
        <time>2026-07-09T14:03:24.000Z</time>
      </trkpt>
      <trkpt lat="44.66875" lon="5.96668">
        <ele>1635.77</ele>
        <time>2026-07-09T14:03:42.000Z</time>
      </trkpt>
      <trkpt lat="44.66866" lon="5.96646">
        <ele>1634.66</ele>
        <time>2026-07-09T14:04:00.000Z</time>
      </trkpt>
      <trkpt lat="44.66858" lon="5.96622">
        <ele>1633.25</ele>
        <time>2026-07-09T14:04:18.000Z</time>
      </trkpt>
      <trkpt lat="44.66845" lon="5.96601">
        <ele>1632.39</ele>
        <time>2026-07-09T14:04:36.000Z</time>
      </trkpt>
    </trkseg>
  </trk>
</gpx>